<?xml version="1.0" encoding="UTF-8" standalone="no" ?>
<gpx xmlns="http://www.topografix.com/GPX/1/1" xmlns:xsi="http://www.w3.org/2001/XMLSchema-instance" xsi:schemaLocation="http://www.topografix.com/GPX/1/1 http://www.topografix.com/GPX/1/1/gpx.xsd" version="1.1" creator="VisuGPX - https://www.visugpx.com">
  <metadata>
    <name>Mont Vinaigre, boucle par le col des Sacs</name>
    <desc><![CDATA[Beau circuit pour l'hiver ou les jours humides. Belles descentes.]]></desc>
  </metadata>
  <trk>
    <name><![CDATA[ACTIVE LOG 001]]></name>
    <trkseg>
      <trkpt lat="43.50131" lon="6.79477">
        <ele>316.8917236</ele>
        <time>2012-11-03T09:13:20Z</time>
      </trkpt>
      <trkpt lat="43.50132" lon="6.79478">
        <ele>316.8917236</ele>
        <time>2012-11-03T09:13:58Z</time>
      </trkpt>
      <trkpt lat="43.50128" lon="6.79484">
        <ele>316.8917236</ele>
        <time>2012-11-03T09:14:02Z</time>
      </trkpt>
      <trkpt lat="43.5011" lon="6.79531">
        <ele>320.2563477</ele>
        <time>2012-11-03T09:14:19Z</time>
      </trkpt>
      <trkpt lat="43.50081" lon="6.79592">
        <ele>323.1403809</ele>
        <time>2012-11-03T09:14:40Z</time>
      </trkpt>
      <trkpt lat="43.50069" lon="6.79664">
        <ele>326.5048828</ele>
        <time>2012-11-03T09:14:59Z</time>
      </trkpt>
      <trkpt lat="43.50039" lon="6.79706">
        <ele>328.9083252</ele>
        <time>2012-11-03T09:15:15Z</time>
      </trkpt>
      <trkpt lat="43.50021" lon="6.79764">
        <ele>332.2728271</ele>
        <time>2012-11-03T09:15:33Z</time>
      </trkpt>
      <trkpt lat="43.49978" lon="6.79809">
        <ele>335.1567383</ele>
        <time>2012-11-03T09:15:55Z</time>
      </trkpt>
      <trkpt lat="43.49937" lon="6.79847">
        <ele>338.5214844</ele>
        <time>2012-11-03T09:16:15Z</time>
      </trkpt>
      <trkpt lat="43.49895" lon="6.79891">
        <ele>341.4052734</ele>
        <time>2012-11-03T09:16:36Z</time>
      </trkpt>
      <trkpt lat="43.49854" lon="6.79938">
        <ele>344.7700195</ele>
        <time>2012-11-03T09:16:57Z</time>
      </trkpt>
      <trkpt lat="43.49814" lon="6.79975">
        <ele>347.1732178</ele>
        <time>2012-11-03T09:17:15Z</time>
      </trkpt>
      <trkpt lat="43.49788" lon="6.80026">
        <ele>350.057251</ele>
        <time>2012-11-03T09:17:33Z</time>
      </trkpt>
      <trkpt lat="43.49748" lon="6.8006">
        <ele>352.9411621</ele>
        <time>2012-11-03T09:17:51Z</time>
      </trkpt>
      <trkpt lat="43.49711" lon="6.80101">
        <ele>355.8251953</ele>
        <time>2012-11-03T09:18:09Z</time>
      </trkpt>
      <trkpt lat="43.49673" lon="6.80145">
        <ele>359.1896973</ele>
        <time>2012-11-03T09:18:28Z</time>
      </trkpt>
      <trkpt lat="43.49613" lon="6.80162">
        <ele>361.5931396</ele>
        <time>2012-11-03T09:18:50Z</time>
      </trkpt>
      <trkpt lat="43.49584" lon="6.80166">
        <ele>362.0737305</ele>
        <time>2012-11-03T09:18:59Z</time>
      </trkpt>
      <trkpt lat="43.49582" lon="6.80189">
        <ele>362.5543213</ele>
        <time>2012-11-03T09:19:04Z</time>
      </trkpt>
      <trkpt lat="43.49609" lon="6.80246">
        <ele>365.9189453</ele>
        <time>2012-11-03T09:19:19Z</time>
      </trkpt>
      <trkpt lat="43.4961" lon="6.80249">
        <ele>365.9189453</ele>
        <time>2012-11-03T09:19:20Z</time>
      </trkpt>
      <trkpt lat="43.49648" lon="6.80308">
        <ele>369.2836914</ele>
        <time>2012-11-03T09:19:38Z</time>
      </trkpt>
      <trkpt lat="43.49655" lon="6.80375">
        <ele>371.6868896</ele>
        <time>2012-11-03T09:19:55Z</time>
      </trkpt>
      <trkpt lat="43.49694" lon="6.8042">
        <ele>375.0515137</ele>
        <time>2012-11-03T09:20:11Z</time>
      </trkpt>
      <trkpt lat="43.49726" lon="6.8049">
        <ele>378.4161377</ele>
        <time>2012-11-03T09:20:30Z</time>
      </trkpt>
      <trkpt lat="43.49733" lon="6.8052">
        <ele>380.3387451</ele>
        <time>2012-11-03T09:20:38Z</time>
      </trkpt>
      <trkpt lat="43.49711" lon="6.80575">
        <ele>382.2613525</ele>
        <time>2012-11-03T09:20:54Z</time>
      </trkpt>
      <trkpt lat="43.49676" lon="6.8063">
        <ele>381.7806396</ele>
        <time>2012-11-03T09:21:11Z</time>
      </trkpt>
      <trkpt lat="43.49691" lon="6.80643">
        <ele>381.7806396</ele>
        <time>2012-11-03T09:21:16Z</time>
      </trkpt>
      <trkpt lat="43.49705" lon="6.80662">
        <ele>381.3000488</ele>
        <time>2012-11-03T09:21:21Z</time>
      </trkpt>
      <trkpt lat="43.49715" lon="6.80673">
        <ele>380.3387451</ele>
        <time>2012-11-03T09:21:24Z</time>
      </trkpt>
      <trkpt lat="43.49725" lon="6.80695">
        <ele>379.8580322</ele>
        <time>2012-11-03T09:21:28Z</time>
      </trkpt>
      <trkpt lat="43.49738" lon="6.80821">
        <ele>376.9742432</ele>
        <time>2012-11-03T09:21:44Z</time>
      </trkpt>
      <trkpt lat="43.49746" lon="6.80876">
        <ele>377.454834</ele>
        <time>2012-11-03T09:21:51Z</time>
      </trkpt>
      <trkpt lat="43.49765" lon="6.80908">
        <ele>377.9354248</ele>
        <time>2012-11-03T09:21:56Z</time>
      </trkpt>
      <trkpt lat="43.49776" lon="6.80916">
        <ele>379.3774414</ele>
        <time>2012-11-03T09:21:59Z</time>
      </trkpt>
      <trkpt lat="43.4981" lon="6.80941">
        <ele>383.2226563</ele>
        <time>2012-11-03T09:22:12Z</time>
      </trkpt>
      <trkpt lat="43.49859" lon="6.80944">
        <ele>386.5874023</ele>
        <time>2012-11-03T09:22:28Z</time>
      </trkpt>
      <trkpt lat="43.49862" lon="6.80945">
        <ele>386.5874023</ele>
        <time>2012-11-03T09:22:29Z</time>
      </trkpt>
      <trkpt lat="43.49903" lon="6.80963">
        <ele>390.4326172</ele>
        <time>2012-11-03T09:22:46Z</time>
      </trkpt>
      <trkpt lat="43.49937" lon="6.80989">
        <ele>393.3165283</ele>
        <time>2012-11-03T09:23:03Z</time>
      </trkpt>
      <trkpt lat="43.49968" lon="6.81009">
        <ele>396.2005615</ele>
        <time>2012-11-03T09:23:19Z</time>
      </trkpt>
      <trkpt lat="43.50003" lon="6.81028">
        <ele>399.5650635</ele>
        <time>2012-11-03T09:23:38Z</time>
      </trkpt>
      <trkpt lat="43.50032" lon="6.81033">
        <ele>402.9296875</ele>
        <time>2012-11-03T09:23:53Z</time>
      </trkpt>
      <trkpt lat="43.50062" lon="6.81027">
        <ele>405.3330078</ele>
        <time>2012-11-03T09:24:08Z</time>
      </trkpt>
      <trkpt lat="43.50087" lon="6.81016">
        <ele>407.7363281</ele>
        <time>2012-11-03T09:24:22Z</time>
      </trkpt>
      <trkpt lat="43.50118" lon="6.81001">
        <ele>411.1009521</ele>
        <time>2012-11-03T09:24:39Z</time>
      </trkpt>
      <trkpt lat="43.50156" lon="6.80986">
        <ele>414.4654541</ele>
        <time>2012-11-03T09:24:58Z</time>
      </trkpt>
      <trkpt lat="43.50186" lon="6.80978">
        <ele>417.8302002</ele>
        <time>2012-11-03T09:25:13Z</time>
      </trkpt>
      <trkpt lat="43.50201" lon="6.80973">
        <ele>418.7915039</ele>
        <time>2012-11-03T09:25:21Z</time>
      </trkpt>
      <trkpt lat="43.50234" lon="6.80964">
        <ele>422.1560059</ele>
        <time>2012-11-03T09:25:38Z</time>
      </trkpt>
      <trkpt lat="43.50268" lon="6.80954">
        <ele>425.520752</ele>
        <time>2012-11-03T09:25:55Z</time>
      </trkpt>
      <trkpt lat="43.50304" lon="6.8095">
        <ele>428.4046631</ele>
        <time>2012-11-03T09:26:12Z</time>
      </trkpt>
      <trkpt lat="43.50339" lon="6.80957">
        <ele>431.769165</ele>
        <time>2012-11-03T09:26:30Z</time>
      </trkpt>
      <trkpt lat="43.5037" lon="6.80975">
        <ele>434.6533203</ele>
        <time>2012-11-03T09:26:45Z</time>
      </trkpt>
      <trkpt lat="43.50392" lon="6.80998">
        <ele>437.5371094</ele>
        <time>2012-11-03T09:26:58Z</time>
      </trkpt>
      <trkpt lat="43.50406" lon="6.81009">
        <ele>439.4597168</ele>
        <time>2012-11-03T09:27:06Z</time>
      </trkpt>
      <trkpt lat="43.50424" lon="6.81054">
        <ele>442.8244629</ele>
        <time>2012-11-03T09:27:25Z</time>
      </trkpt>
      <trkpt lat="43.50429" lon="6.81075">
        <ele>444.2664795</ele>
        <time>2012-11-03T09:27:33Z</time>
      </trkpt>
      <trkpt lat="43.5043" lon="6.81091">
        <ele>445.2276611</ele>
        <time>2012-11-03T09:27:39Z</time>
      </trkpt>
      <trkpt lat="43.5043" lon="6.81102">
        <ele>446.1890869</ele>
        <time>2012-11-03T09:27:44Z</time>
      </trkpt>
      <trkpt lat="43.50428" lon="6.8112">
        <ele>447.6309814</ele>
        <time>2012-11-03T09:27:51Z</time>
      </trkpt>
      <trkpt lat="43.50426" lon="6.81126">
        <ele>447.6309814</ele>
        <time>2012-11-03T09:27:54Z</time>
      </trkpt>
      <trkpt lat="43.50426" lon="6.81137">
        <ele>449.072998</ele>
        <time>2012-11-03T09:27:59Z</time>
      </trkpt>
      <trkpt lat="43.50426" lon="6.81148">
        <ele>449.5537109</ele>
        <time>2012-11-03T09:28:04Z</time>
      </trkpt>
      <trkpt lat="43.50428" lon="6.81166">
        <ele>450.9956055</ele>
        <time>2012-11-03T09:28:11Z</time>
      </trkpt>
      <trkpt lat="43.50428" lon="6.8118">
        <ele>451.9570313</ele>
        <time>2012-11-03T09:28:16Z</time>
      </trkpt>
      <trkpt lat="43.50427" lon="6.81185">
        <ele>451.4763184</ele>
        <time>2012-11-03T09:28:18Z</time>
      </trkpt>
      <trkpt lat="43.50426" lon="6.81194">
        <ele>452.4376221</ele>
        <time>2012-11-03T09:28:22Z</time>
      </trkpt>
      <trkpt lat="43.50425" lon="6.81211">
        <ele>453.3989258</ele>
        <time>2012-11-03T09:28:29Z</time>
      </trkpt>
      <trkpt lat="43.50426" lon="6.81229">
        <ele>454.8408203</ele>
        <time>2012-11-03T09:28:36Z</time>
      </trkpt>
      <trkpt lat="43.50432" lon="6.81272">
        <ele>458.2055664</ele>
        <time>2012-11-03T09:28:53Z</time>
      </trkpt>
      <trkpt lat="43.50454" lon="6.81304">
        <ele>461.0894775</ele>
        <time>2012-11-03T09:29:10Z</time>
      </trkpt>
      <trkpt lat="43.50468" lon="6.81314">
        <ele>462.5313721</ele>
        <time>2012-11-03T09:29:17Z</time>
      </trkpt>
      <trkpt lat="43.50458" lon="6.81319">
        <ele>463.9733887</ele>
        <time>2012-11-03T09:29:23Z</time>
      </trkpt>
      <trkpt lat="43.50428" lon="6.81292">
        <ele>465.4155273</ele>
        <time>2012-11-03T09:29:42Z</time>
      </trkpt>
      <trkpt lat="43.50416" lon="6.81249">
        <ele>468.2993164</ele>
        <time>2012-11-03T09:29:59Z</time>
      </trkpt>
      <trkpt lat="43.50414" lon="6.81213">
        <ele>471.1833496</ele>
        <time>2012-11-03T09:30:13Z</time>
      </trkpt>
      <trkpt lat="43.50412" lon="6.81204">
        <ele>471.6639404</ele>
        <time>2012-11-03T09:30:16Z</time>
      </trkpt>
      <trkpt lat="43.50412" lon="6.81162">
        <ele>474.0672607</ele>
        <time>2012-11-03T09:30:32Z</time>
      </trkpt>
      <trkpt lat="43.5041" lon="6.81148">
        <ele>475.0286865</ele>
        <time>2012-11-03T09:30:37Z</time>
      </trkpt>
      <trkpt lat="43.50401" lon="6.81123">
        <ele>475.9898682</ele>
        <time>2012-11-03T09:30:46Z</time>
      </trkpt>
      <trkpt lat="43.50375" lon="6.81085">
        <ele>478.3931885</ele>
        <time>2012-11-03T09:31:01Z</time>
      </trkpt>
      <trkpt lat="43.50344" lon="6.81065">
        <ele>481.7578125</ele>
        <time>2012-11-03T09:31:17Z</time>
      </trkpt>
      <trkpt lat="43.50312" lon="6.81072">
        <ele>483.6804199</ele>
        <time>2012-11-03T09:31:32Z</time>
      </trkpt>
      <trkpt lat="43.50277" lon="6.81103">
        <ele>486.5644531</ele>
        <time>2012-11-03T09:31:51Z</time>
      </trkpt>
      <trkpt lat="43.50245" lon="6.81131">
        <ele>489.9290771</ele>
        <time>2012-11-03T09:32:09Z</time>
      </trkpt>
      <trkpt lat="43.50236" lon="6.81135">
        <ele>490.40979</ele>
        <time>2012-11-03T09:32:14Z</time>
      </trkpt>
      <trkpt lat="43.50212" lon="6.8118">
        <ele>493.774292</ele>
        <time>2012-11-03T09:32:33Z</time>
      </trkpt>
      <trkpt lat="43.50211" lon="6.81225">
        <ele>496.6583252</ele>
        <time>2012-11-03T09:32:49Z</time>
      </trkpt>
      <trkpt lat="43.50211" lon="6.81289">
        <ele>500.50354</ele>
        <time>2012-11-03T09:33:11Z</time>
      </trkpt>
      <trkpt lat="43.50209" lon="6.81344">
        <ele>503.3874512</ele>
        <time>2012-11-03T09:33:30Z</time>
      </trkpt>
      <trkpt lat="43.50192" lon="6.81385">
        <ele>506.7520752</ele>
        <time>2012-11-03T09:33:48Z</time>
      </trkpt>
      <trkpt lat="43.50192" lon="6.81385">
        <ele>506.2714844</ele>
        <time>2012-11-03T09:34:32Z</time>
      </trkpt>
      <trkpt lat="43.50186" lon="6.81429">
        <ele>508.6746826</ele>
        <time>2012-11-03T09:34:49Z</time>
      </trkpt>
      <trkpt lat="43.50189" lon="6.81481">
        <ele>512.0394287</ele>
        <time>2012-11-03T09:35:07Z</time>
      </trkpt>
      <trkpt lat="43.50191" lon="6.81528">
        <ele>515.4040527</ele>
        <time>2012-11-03T09:35:23Z</time>
      </trkpt>
      <trkpt lat="43.50201" lon="6.81588">
        <ele>518.7685547</ele>
        <time>2012-11-03T09:35:44Z</time>
      </trkpt>
      <trkpt lat="43.50208" lon="6.81645">
        <ele>521.6525879</ele>
        <time>2012-11-03T09:36:03Z</time>
      </trkpt>
      <trkpt lat="43.50188" lon="6.81696">
        <ele>525.0172119</ele>
        <time>2012-11-03T09:36:22Z</time>
      </trkpt>
      <trkpt lat="43.50161" lon="6.81729">
        <ele>527.901001</ele>
        <time>2012-11-03T09:36:39Z</time>
      </trkpt>
      <trkpt lat="43.50127" lon="6.81761">
        <ele>531.2657471</ele>
        <time>2012-11-03T09:36:58Z</time>
      </trkpt>
      <trkpt lat="43.50091" lon="6.8179">
        <ele>534.1496582</ele>
        <time>2012-11-03T09:37:17Z</time>
      </trkpt>
      <trkpt lat="43.50067" lon="6.81807">
        <ele>536.5531006</ele>
        <time>2012-11-03T09:37:30Z</time>
      </trkpt>
      <trkpt lat="43.50073" lon="6.81814">
        <ele>537.9949951</ele>
        <time>2012-11-03T09:37:35Z</time>
      </trkpt>
      <trkpt lat="43.50127" lon="6.81784">
        <ele>541.3594971</ele>
        <time>2012-11-03T09:38:00Z</time>
      </trkpt>
      <trkpt lat="43.50165" lon="6.81765">
        <ele>544.2436523</ele>
        <time>2012-11-03T09:38:16Z</time>
      </trkpt>
      <trkpt lat="43.50207" lon="6.81756">
        <ele>547.6081543</ele>
        <time>2012-11-03T09:38:33Z</time>
      </trkpt>
      <trkpt lat="43.50244" lon="6.81743">
        <ele>550.4921875</ele>
        <time>2012-11-03T09:38:49Z</time>
      </trkpt>
      <trkpt lat="43.50241" lon="6.81745">
        <ele>546.3046875</ele>
      </trkpt>
      <trkpt lat="43.50252" lon="6.81819">
        <ele>543.2421875</ele>
      </trkpt>
      <trkpt lat="43.50254" lon="6.8195">
        <ele>552.390625</ele>
      </trkpt>
      <trkpt lat="43.50254" lon="6.82014">
        <ele>562.4765625</ele>
      </trkpt>
      <trkpt lat="43.50274" lon="6.82081">
        <ele>564.2851563</ele>
      </trkpt>
      <trkpt lat="43.5023" lon="6.82051">
        <ele>579.3476563</ele>
      </trkpt>
      <trkpt lat="43.50229" lon="6.82054">
        <ele>580.28125</ele>
      </trkpt>
      <trkpt lat="43.50252" lon="6.82112">
        <ele>579.5234375</ele>
      </trkpt>
      <trkpt lat="43.50231" lon="6.82052">
        <ele>579.3046875</ele>
      </trkpt>
      <trkpt lat="43.50274" lon="6.82083">
        <ele>564.578125</ele>
      </trkpt>
      <trkpt lat="43.50253" lon="6.82017">
        <ele>563.5859375</ele>
      </trkpt>
      <trkpt lat="43.50253" lon="6.81953">
        <ele>553.3203125</ele>
      </trkpt>
      <trkpt lat="43.50253" lon="6.8182">
        <ele>542.796875</ele>
      </trkpt>
      <trkpt lat="43.50247" lon="6.81741">
        <ele>545.21875</ele>
      </trkpt>
      <trkpt lat="43.50244" lon="6.81743">
        <ele>550.4921875</ele>
        <time>2012-11-03T09:38:49Z</time>
      </trkpt>
      <trkpt lat="43.50249" lon="6.81741">
        <ele>550.4921875</ele>
        <time>2012-11-03T09:38:51Z</time>
      </trkpt>
      <trkpt lat="43.50261" lon="6.81726">
        <ele>550.9726563</ele>
        <time>2012-11-03T09:38:58Z</time>
      </trkpt>
      <trkpt lat="43.50284" lon="6.81691">
        <ele>554.3374023</ele>
        <time>2012-11-03T09:39:15Z</time>
      </trkpt>
      <trkpt lat="43.5029" lon="6.81681">
        <ele>555.7792969</ele>
        <time>2012-11-03T09:39:21Z</time>
      </trkpt>
      <trkpt lat="43.50293" lon="6.81656">
        <ele>559.144043</ele>
        <time>2012-11-03T09:39:33Z</time>
      </trkpt>
      <trkpt lat="43.50293" lon="6.8165">
        <ele>559.144043</ele>
        <time>2012-11-03T09:39:50Z</time>
      </trkpt>
      <trkpt lat="43.50293" lon="6.8165">
        <ele>558.6633301</ele>
        <time>2012-11-03T09:42:07Z</time>
      </trkpt>
      <trkpt lat="43.50289" lon="6.81643">
        <ele>558.6633301</ele>
        <time>2012-11-03T09:42:11Z</time>
      </trkpt>
      <trkpt lat="43.5028" lon="6.81579">
        <ele>555.7792969</ele>
        <time>2012-11-03T09:42:26Z</time>
      </trkpt>
      <trkpt lat="43.50266" lon="6.81554">
        <ele>556.2600098</ele>
        <time>2012-11-03T09:42:33Z</time>
      </trkpt>
      <trkpt lat="43.5027" lon="6.81518">
        <ele>555.7792969</ele>
        <time>2012-11-03T09:42:45Z</time>
      </trkpt>
      <trkpt lat="43.50278" lon="6.81495">
        <ele>552.8952637</ele>
        <time>2012-11-03T09:42:50Z</time>
      </trkpt>
      <trkpt lat="43.5028" lon="6.81492">
        <ele>552.8952637</ele>
        <time>2012-11-03T09:42:51Z</time>
      </trkpt>
      <trkpt lat="43.50287" lon="6.81479">
        <ele>550.9726563</ele>
        <time>2012-11-03T09:42:56Z</time>
      </trkpt>
      <trkpt lat="43.5029" lon="6.81474">
        <ele>550.0114746</ele>
        <time>2012-11-03T09:42:58Z</time>
      </trkpt>
      <trkpt lat="43.50293" lon="6.81468">
        <ele>549.0500488</ele>
        <time>2012-11-03T09:43:00Z</time>
      </trkpt>
      <trkpt lat="43.50297" lon="6.81453">
        <ele>546.6468506</ele>
        <time>2012-11-03T09:43:04Z</time>
      </trkpt>
      <trkpt lat="43.50298" lon="6.81439">
        <ele>546.1662598</ele>
        <time>2012-11-03T09:43:07Z</time>
      </trkpt>
      <trkpt lat="43.50294" lon="6.81418">
        <ele>543.7628174</ele>
        <time>2012-11-03T09:43:12Z</time>
      </trkpt>
      <trkpt lat="43.50293" lon="6.81415">
        <ele>542.8015137</ele>
        <time>2012-11-03T09:43:13Z</time>
      </trkpt>
      <trkpt lat="43.50289" lon="6.81404">
        <ele>541.3594971</ele>
        <time>2012-11-03T09:43:18Z</time>
      </trkpt>
      <trkpt lat="43.50276" lon="6.81369">
        <ele>537.5142822</ele>
        <time>2012-11-03T09:43:27Z</time>
      </trkpt>
      <trkpt lat="43.50266" lon="6.81337">
        <ele>535.1109619</ele>
        <time>2012-11-03T09:43:35Z</time>
      </trkpt>
      <trkpt lat="43.5026" lon="6.81324">
        <ele>533.1883545</ele>
        <time>2012-11-03T09:43:38Z</time>
      </trkpt>
      <trkpt lat="43.50258" lon="6.81315">
        <ele>532.7077637</ele>
        <time>2012-11-03T09:43:40Z</time>
      </trkpt>
      <trkpt lat="43.50256" lon="6.81305">
        <ele>530.7851563</ele>
        <time>2012-11-03T09:43:43Z</time>
      </trkpt>
      <trkpt lat="43.50257" lon="6.8129">
        <ele>529.3431396</ele>
        <time>2012-11-03T09:43:47Z</time>
      </trkpt>
      <trkpt lat="43.50259" lon="6.81282">
        <ele>528.3818359</ele>
        <time>2012-11-03T09:43:50Z</time>
      </trkpt>
      <trkpt lat="43.50262" lon="6.81266">
        <ele>525.4978027</ele>
        <time>2012-11-03T09:43:55Z</time>
      </trkpt>
      <trkpt lat="43.50263" lon="6.81263">
        <ele>525.4978027</ele>
        <time>2012-11-03T09:43:56Z</time>
      </trkpt>
      <trkpt lat="43.50263" lon="6.8126">
        <ele>525.4978027</ele>
        <time>2012-11-03T09:43:57Z</time>
      </trkpt>
      <trkpt lat="43.50266" lon="6.81251">
        <ele>524.0557861</ele>
        <time>2012-11-03T09:44:00Z</time>
      </trkpt>
      <trkpt lat="43.50266" lon="6.81248">
        <ele>523.5751953</ele>
        <time>2012-11-03T09:44:01Z</time>
      </trkpt>
      <trkpt lat="43.50266" lon="6.81233">
        <ele>522.6138916</ele>
        <time>2012-11-03T09:44:05Z</time>
      </trkpt>
      <trkpt lat="43.50266" lon="6.81228">
        <ele>521.1719971</ele>
        <time>2012-11-03T09:44:07Z</time>
      </trkpt>
      <trkpt lat="43.50266" lon="6.81224">
        <ele>520.2105713</ele>
        <time>2012-11-03T09:44:08Z</time>
      </trkpt>
      <trkpt lat="43.50268" lon="6.81212">
        <ele>519.7298584</ele>
        <time>2012-11-03T09:44:12Z</time>
      </trkpt>
      <trkpt lat="43.50284" lon="6.81185">
        <ele>514.442627</ele>
        <time>2012-11-03T09:44:22Z</time>
      </trkpt>
      <trkpt lat="43.5029" lon="6.81174">
        <ele>512.5200195</ele>
        <time>2012-11-03T09:44:26Z</time>
      </trkpt>
      <trkpt lat="43.50295" lon="6.81162">
        <ele>510.59729</ele>
        <time>2012-11-03T09:44:29Z</time>
      </trkpt>
      <trkpt lat="43.50309" lon="6.81137">
        <ele>506.7520752</ele>
        <time>2012-11-03T09:44:39Z</time>
      </trkpt>
      <trkpt lat="43.50317" lon="6.81122">
        <ele>504.8294678</ele>
        <time>2012-11-03T09:44:43Z</time>
      </trkpt>
      <trkpt lat="43.50325" lon="6.81115">
        <ele>503.8681641</ele>
        <time>2012-11-03T09:44:47Z</time>
      </trkpt>
      <trkpt lat="43.50339" lon="6.81118">
        <ele>500.9841309</ele>
        <time>2012-11-03T09:44:53Z</time>
      </trkpt>
      <trkpt lat="43.50341" lon="6.81119">
        <ele>500.0229492</ele>
        <time>2012-11-03T09:44:54Z</time>
      </trkpt>
      <trkpt lat="43.50354" lon="6.8113">
        <ele>497.6196289</ele>
        <time>2012-11-03T09:44:59Z</time>
      </trkpt>
      <trkpt lat="43.50363" lon="6.8115">
        <ele>495.6968994</ele>
        <time>2012-11-03T09:45:03Z</time>
      </trkpt>
      <trkpt lat="43.50368" lon="6.81171">
        <ele>492.3323975</ele>
        <time>2012-11-03T09:45:07Z</time>
      </trkpt>
      <trkpt lat="43.5037" lon="6.81176">
        <ele>492.3323975</ele>
        <time>2012-11-03T09:45:08Z</time>
      </trkpt>
      <trkpt lat="43.50371" lon="6.81179">
        <ele>491.3709717</ele>
        <time>2012-11-03T09:45:09Z</time>
      </trkpt>
      <trkpt lat="43.50375" lon="6.81195">
        <ele>488.9677734</ele>
        <time>2012-11-03T09:45:13Z</time>
      </trkpt>
      <trkpt lat="43.50383" lon="6.81215">
        <ele>487.0450439</ele>
        <time>2012-11-03T09:45:17Z</time>
      </trkpt>
      <trkpt lat="43.50386" lon="6.81224">
        <ele>485.6030273</ele>
        <time>2012-11-03T09:45:20Z</time>
      </trkpt>
      <trkpt lat="43.50386" lon="6.81224">
        <ele>485.1224365</ele>
        <time>2012-11-03T09:45:22Z</time>
      </trkpt>
      <trkpt lat="43.50385" lon="6.8122">
        <ele>484.1611328</ele>
        <time>2012-11-03T09:45:24Z</time>
      </trkpt>
      <trkpt lat="43.50383" lon="6.81213">
        <ele>482.2385254</ele>
        <time>2012-11-03T09:45:27Z</time>
      </trkpt>
      <trkpt lat="43.50383" lon="6.81213">
        <ele>481.2772217</ele>
        <time>2012-11-03T09:45:29Z</time>
      </trkpt>
      <trkpt lat="43.50386" lon="6.81227">
        <ele>478.3931885</ele>
        <time>2012-11-03T09:45:34Z</time>
      </trkpt>
      <trkpt lat="43.50391" lon="6.81173">
        <ele>476.9512939</ele>
        <time>2012-11-03T09:45:37Z</time>
      </trkpt>
      <trkpt lat="43.50395" lon="6.8116">
        <ele>474.5479736</ele>
        <time>2012-11-03T09:45:41Z</time>
      </trkpt>
      <trkpt lat="43.50396" lon="6.81159">
        <ele>475.0286865</ele>
        <time>2012-11-03T09:45:43Z</time>
      </trkpt>
      <trkpt lat="43.50397" lon="6.81152">
        <ele>474.5479736</ele>
        <time>2012-11-03T09:46:04Z</time>
      </trkpt>
      <trkpt lat="43.50397" lon="6.81144">
        <ele>475.0286865</ele>
        <time>2012-11-03T09:47:20Z</time>
      </trkpt>
      <trkpt lat="43.50397" lon="6.81138">
        <ele>474.0672607</ele>
        <time>2012-11-03T09:47:22Z</time>
      </trkpt>
      <trkpt lat="43.50398" lon="6.81134">
        <ele>471.6639404</ele>
        <time>2012-11-03T09:47:40Z</time>
      </trkpt>
      <trkpt lat="43.50398" lon="6.81134">
        <ele>472.1446533</ele>
        <time>2012-11-03T09:48:39Z</time>
      </trkpt>
      <trkpt lat="43.50399" lon="6.81113">
        <ele>470.7026367</ele>
        <time>2012-11-03T09:48:43Z</time>
      </trkpt>
      <trkpt lat="43.50397" lon="6.81098">
        <ele>468.2993164</ele>
        <time>2012-11-03T09:48:46Z</time>
      </trkpt>
      <trkpt lat="43.50392" lon="6.81072">
        <ele>464.9348145</ele>
        <time>2012-11-03T09:48:52Z</time>
      </trkpt>
      <trkpt lat="43.50389" lon="6.81064">
        <ele>464.4541016</ele>
        <time>2012-11-03T09:48:54Z</time>
      </trkpt>
      <trkpt lat="43.50384" lon="6.81053">
        <ele>463.4927979</ele>
        <time>2012-11-03T09:48:56Z</time>
      </trkpt>
      <trkpt lat="43.50379" lon="6.81044">
        <ele>462.0507813</ele>
        <time>2012-11-03T09:48:58Z</time>
      </trkpt>
      <trkpt lat="43.50371" lon="6.81031">
        <ele>459.647583</ele>
        <time>2012-11-03T09:49:01Z</time>
      </trkpt>
      <trkpt lat="43.50363" lon="6.81019">
        <ele>458.6861572</ele>
        <time>2012-11-03T09:49:03Z</time>
      </trkpt>
      <trkpt lat="43.50346" lon="6.81005">
        <ele>453.8796387</ele>
        <time>2012-11-03T09:49:07Z</time>
      </trkpt>
      <trkpt lat="43.50341" lon="6.81003">
        <ele>453.8796387</ele>
        <time>2012-11-03T09:49:08Z</time>
      </trkpt>
      <trkpt lat="43.50336" lon="6.81">
        <ele>453.3989258</ele>
        <time>2012-11-03T09:49:09Z</time>
      </trkpt>
      <trkpt lat="43.50323" lon="6.80996">
        <ele>451.9570313</ele>
        <time>2012-11-03T09:49:12Z</time>
      </trkpt>
      <trkpt lat="43.50323" lon="6.80996">
        <ele>450.5150146</ele>
        <time>2012-11-03T09:49:29Z</time>
      </trkpt>
      <trkpt lat="43.5031" lon="6.80994">
        <ele>449.5537109</ele>
        <time>2012-11-03T09:50:53Z</time>
      </trkpt>
      <trkpt lat="43.50294" lon="6.80994">
        <ele>448.1118164</ele>
        <time>2012-11-03T09:52:01Z</time>
      </trkpt>
      <trkpt lat="43.50272" lon="6.80995">
        <ele>444.2664795</ele>
        <time>2012-11-03T09:52:05Z</time>
      </trkpt>
      <trkpt lat="43.50266" lon="6.80997">
        <ele>444.2664795</ele>
        <time>2012-11-03T09:52:06Z</time>
      </trkpt>
      <trkpt lat="43.50255" lon="6.81">
        <ele>442.3438721</ele>
        <time>2012-11-03T09:52:08Z</time>
      </trkpt>
      <trkpt lat="43.50251" lon="6.81001">
        <ele>441.3824463</ele>
        <time>2012-11-03T09:52:09Z</time>
      </trkpt>
      <trkpt lat="43.50236" lon="6.81005">
        <ele>438.4985352</ele>
        <time>2012-11-03T09:52:12Z</time>
      </trkpt>
      <trkpt lat="43.50233" lon="6.81006">
        <ele>438.4985352</ele>
        <time>2012-11-03T09:52:13Z</time>
      </trkpt>
      <trkpt lat="43.50226" lon="6.81007">
        <ele>437.0565186</ele>
        <time>2012-11-03T09:52:16Z</time>
      </trkpt>
      <trkpt lat="43.50217" lon="6.81009">
        <ele>436.5759277</ele>
        <time>2012-11-03T09:52:21Z</time>
      </trkpt>
      <trkpt lat="43.50196" lon="6.81013">
        <ele>433.2113037</ele>
        <time>2012-11-03T09:52:34Z</time>
      </trkpt>
      <trkpt lat="43.50178" lon="6.81015">
        <ele>431.769165</ele>
        <time>2012-11-03T09:52:40Z</time>
      </trkpt>
      <trkpt lat="43.50164" lon="6.81018">
        <ele>429.3659668</ele>
        <time>2012-11-03T09:52:43Z</time>
      </trkpt>
      <trkpt lat="43.50153" lon="6.81021">
        <ele>427.9239502</ele>
        <time>2012-11-03T09:52:45Z</time>
      </trkpt>
      <trkpt lat="43.50126" lon="6.8103">
        <ele>423.5980225</ele>
        <time>2012-11-03T09:52:49Z</time>
      </trkpt>
      <trkpt lat="43.50119" lon="6.81033">
        <ele>423.5980225</ele>
        <time>2012-11-03T09:52:50Z</time>
      </trkpt>
      <trkpt lat="43.50106" lon="6.81038">
        <ele>421.1948242</ele>
        <time>2012-11-03T09:52:52Z</time>
      </trkpt>
      <trkpt lat="43.501" lon="6.81041">
        <ele>419.7528076</ele>
        <time>2012-11-03T09:52:53Z</time>
      </trkpt>
      <trkpt lat="43.50076" lon="6.81049">
        <ele>416.8688965</ele>
        <time>2012-11-03T09:52:57Z</time>
      </trkpt>
      <trkpt lat="43.50055" lon="6.81052">
        <ele>413.9848633</ele>
        <time>2012-11-03T09:53:01Z</time>
      </trkpt>
      <trkpt lat="43.50049" lon="6.81053">
        <ele>412.5428467</ele>
        <time>2012-11-03T09:53:02Z</time>
      </trkpt>
      <trkpt lat="43.5003" lon="6.81052">
        <ele>410.1396484</ele>
        <time>2012-11-03T09:53:05Z</time>
      </trkpt>
      <trkpt lat="43.50017" lon="6.8105">
        <ele>408.6976318</ele>
        <time>2012-11-03T09:53:08Z</time>
      </trkpt>
      <trkpt lat="43.50007" lon="6.81045">
        <ele>407.2556152</ele>
        <time>2012-11-03T09:53:10Z</time>
      </trkpt>
      <trkpt lat="43.49992" lon="6.81036">
        <ele>404.3717041</ele>
        <time>2012-11-03T09:53:13Z</time>
      </trkpt>
      <trkpt lat="43.49978" lon="6.81025">
        <ele>401.9685059</ele>
        <time>2012-11-03T09:53:17Z</time>
      </trkpt>
      <trkpt lat="43.49973" lon="6.81018">
        <ele>400.5264893</ele>
        <time>2012-11-03T09:53:19Z</time>
      </trkpt>
      <trkpt lat="43.49957" lon="6.81002">
        <ele>398.1231689</ele>
        <time>2012-11-03T09:53:24Z</time>
      </trkpt>
      <trkpt lat="43.49941" lon="6.80991">
        <ele>396.6811523</ele>
        <time>2012-11-03T09:53:27Z</time>
      </trkpt>
      <trkpt lat="43.49929" lon="6.80981">
        <ele>395.2391357</ele>
        <time>2012-11-03T09:53:29Z</time>
      </trkpt>
      <trkpt lat="43.4992" lon="6.80971">
        <ele>393.7972412</ele>
        <time>2012-11-03T09:53:31Z</time>
      </trkpt>
      <trkpt lat="43.4992" lon="6.80951">
        <ele>393.3165283</ele>
        <time>2012-11-03T09:53:32Z</time>
      </trkpt>
      <trkpt lat="43.49906" lon="6.80892">
        <ele>390.913208</ele>
        <time>2012-11-03T09:53:39Z</time>
      </trkpt>
      <trkpt lat="43.49894" lon="6.80869">
        <ele>390.4326172</ele>
        <time>2012-11-03T09:53:42Z</time>
      </trkpt>
      <trkpt lat="43.49879" lon="6.80841">
        <ele>388.0292969</ele>
        <time>2012-11-03T09:53:46Z</time>
      </trkpt>
      <trkpt lat="43.49847" lon="6.80784">
        <ele>386.1066895</ele>
        <time>2012-11-03T09:53:56Z</time>
      </trkpt>
      <trkpt lat="43.49841" lon="6.80772">
        <ele>385.6259766</ele>
        <time>2012-11-03T09:53:58Z</time>
      </trkpt>
      <trkpt lat="43.49828" lon="6.80752">
        <ele>385.6259766</ele>
        <time>2012-11-03T09:54:06Z</time>
      </trkpt>
      <trkpt lat="43.49808" lon="6.80713">
        <ele>384.6647949</ele>
        <time>2012-11-03T09:54:13Z</time>
      </trkpt>
      <trkpt lat="43.49781" lon="6.80661">
        <ele>384.6647949</ele>
        <time>2012-11-03T09:54:26Z</time>
      </trkpt>
      <trkpt lat="43.49777" lon="6.80629">
        <ele>385.1453857</ele>
        <time>2012-11-03T09:54:37Z</time>
      </trkpt>
      <trkpt lat="43.49752" lon="6.80567">
        <ele>386.5874023</ele>
        <time>2012-11-03T09:54:45Z</time>
      </trkpt>
      <trkpt lat="43.49742" lon="6.80552">
        <ele>385.6259766</ele>
        <time>2012-11-03T09:54:48Z</time>
      </trkpt>
      <trkpt lat="43.49735" lon="6.80541">
        <ele>384.184082</ele>
        <time>2012-11-03T09:54:50Z</time>
      </trkpt>
      <trkpt lat="43.49732" lon="6.80537">
        <ele>383.7032471</ele>
        <time>2012-11-03T09:54:52Z</time>
      </trkpt>
      <trkpt lat="43.49727" lon="6.80489">
        <ele>380.819458</ele>
        <time>2012-11-03T09:54:55Z</time>
      </trkpt>
      <trkpt lat="43.49718" lon="6.80469">
        <ele>379.3774414</ele>
        <time>2012-11-03T09:54:57Z</time>
      </trkpt>
      <trkpt lat="43.49709" lon="6.80449">
        <ele>378.4161377</ele>
        <time>2012-11-03T09:54:59Z</time>
      </trkpt>
      <trkpt lat="43.49687" lon="6.80415">
        <ele>376.4935303</ele>
        <time>2012-11-03T09:55:03Z</time>
      </trkpt>
      <trkpt lat="43.49666" lon="6.80395">
        <ele>375.5321045</ele>
        <time>2012-11-03T09:55:06Z</time>
      </trkpt>
      <trkpt lat="43.49651" lon="6.80367">
        <ele>374.0900879</ele>
        <time>2012-11-03T09:55:09Z</time>
      </trkpt>
      <trkpt lat="43.49649" lon="6.80344">
        <ele>373.6094971</ele>
        <time>2012-11-03T09:55:11Z</time>
      </trkpt>
      <trkpt lat="43.4965" lon="6.80322">
        <ele>372.1674805</ele>
        <time>2012-11-03T09:55:13Z</time>
      </trkpt>
      <trkpt lat="43.49649" lon="6.80311">
        <ele>370.7255859</ele>
        <time>2012-11-03T09:55:14Z</time>
      </trkpt>
      <trkpt lat="43.49612" lon="6.80252">
        <ele>367.3609619</ele>
        <time>2012-11-03T09:55:21Z</time>
      </trkpt>
      <trkpt lat="43.49607" lon="6.80243">
        <ele>367.3609619</ele>
        <time>2012-11-03T09:55:22Z</time>
      </trkpt>
      <trkpt lat="43.49591" lon="6.80217">
        <ele>365.9189453</ele>
        <time>2012-11-03T09:55:25Z</time>
      </trkpt>
      <trkpt lat="43.49581" lon="6.80188">
        <ele>363.9963379</ele>
        <time>2012-11-03T09:55:28Z</time>
      </trkpt>
      <trkpt lat="43.49543" lon="6.80177">
        <ele>363.9963379</ele>
        <time>2012-11-03T09:55:36Z</time>
      </trkpt>
      <trkpt lat="43.49531" lon="6.80183">
        <ele>362.5543213</ele>
        <time>2012-11-03T09:55:38Z</time>
      </trkpt>
      <trkpt lat="43.49472" lon="6.80201">
        <ele>361.1124268</ele>
        <time>2012-11-03T09:55:46Z</time>
      </trkpt>
      <trkpt lat="43.49428" lon="6.80165">
        <ele>361.5931396</ele>
        <time>2012-11-03T09:55:54Z</time>
      </trkpt>
      <trkpt lat="43.49425" lon="6.80144">
        <ele>362.5543213</ele>
        <time>2012-11-03T09:55:57Z</time>
      </trkpt>
      <trkpt lat="43.4943" lon="6.80113">
        <ele>364.9576416</ele>
        <time>2012-11-03T09:56:03Z</time>
      </trkpt>
      <trkpt lat="43.49435" lon="6.80083">
        <ele>366.3995361</ele>
        <time>2012-11-03T09:56:08Z</time>
      </trkpt>
      <trkpt lat="43.49432" lon="6.80052">
        <ele>368.8029785</ele>
        <time>2012-11-03T09:56:15Z</time>
      </trkpt>
      <trkpt lat="43.49386" lon="6.80017">
        <ele>372.1674805</ele>
        <time>2012-11-03T09:56:31Z</time>
      </trkpt>
      <trkpt lat="43.49368" lon="6.79996">
        <ele>373.6094971</ele>
        <time>2012-11-03T09:56:42Z</time>
      </trkpt>
      <trkpt lat="43.4936" lon="6.79982">
        <ele>372.6481934</ele>
        <time>2012-11-03T09:56:48Z</time>
      </trkpt>
      <trkpt lat="43.49345" lon="6.79963">
        <ele>371.6868896</ele>
        <time>2012-11-03T09:56:53Z</time>
      </trkpt>
      <trkpt lat="43.49304" lon="6.79956">
        <ele>371.6868896</ele>
        <time>2012-11-03T09:57:05Z</time>
      </trkpt>
      <trkpt lat="43.49272" lon="6.79938">
        <ele>371.6868896</ele>
        <time>2012-11-03T09:57:15Z</time>
      </trkpt>
      <trkpt lat="43.49232" lon="6.79909">
        <ele>372.1674805</ele>
        <time>2012-11-03T09:57:28Z</time>
      </trkpt>
      <trkpt lat="43.49206" lon="6.79859">
        <ele>373.1289063</ele>
        <time>2012-11-03T09:57:40Z</time>
      </trkpt>
      <trkpt lat="43.49173" lon="6.79796">
        <ele>373.6094971</ele>
        <time>2012-11-03T09:57:56Z</time>
      </trkpt>
      <trkpt lat="43.49126" lon="6.79733">
        <ele>375.5321045</ele>
        <time>2012-11-03T09:58:15Z</time>
      </trkpt>
      <trkpt lat="43.49109" lon="6.79679">
        <ele>376.4935303</ele>
        <time>2012-11-03T09:58:29Z</time>
      </trkpt>
      <trkpt lat="43.49111" lon="6.79671">
        <ele>376.4935303</ele>
        <time>2012-11-03T09:58:31Z</time>
      </trkpt>
      <trkpt lat="43.49099" lon="6.79624">
        <ele>377.454834</ele>
        <time>2012-11-03T09:58:45Z</time>
      </trkpt>
      <trkpt lat="43.49085" lon="6.79566">
        <ele>377.9354248</ele>
        <time>2012-11-03T09:59:00Z</time>
      </trkpt>
      <trkpt lat="43.49069" lon="6.79526">
        <ele>378.8968506</ele>
        <time>2012-11-03T09:59:11Z</time>
      </trkpt>
      <trkpt lat="43.49072" lon="6.79504">
        <ele>378.8968506</ele>
        <time>2012-11-03T09:59:16Z</time>
      </trkpt>
      <trkpt lat="43.49071" lon="6.79489">
        <ele>378.4161377</ele>
        <time>2012-11-03T09:59:20Z</time>
      </trkpt>
      <trkpt lat="43.49048" lon="6.79483">
        <ele>378.4161377</ele>
        <time>2012-11-03T09:59:30Z</time>
      </trkpt>
      <trkpt lat="43.49014" lon="6.79498">
        <ele>377.9354248</ele>
        <time>2012-11-03T09:59:44Z</time>
      </trkpt>
      <trkpt lat="43.48971" lon="6.79486">
        <ele>377.454834</ele>
        <time>2012-11-03T10:00:03Z</time>
      </trkpt>
      <trkpt lat="43.48937" lon="6.79414">
        <ele>374.5708008</ele>
        <time>2012-11-03T10:00:21Z</time>
      </trkpt>
      <trkpt lat="43.48901" lon="6.79432">
        <ele>372.1674805</ele>
        <time>2012-11-03T10:00:33Z</time>
      </trkpt>
      <trkpt lat="43.48884" lon="6.79446">
        <ele>371.2062988</ele>
        <time>2012-11-03T10:00:38Z</time>
      </trkpt>
      <trkpt lat="43.48866" lon="6.79461">
        <ele>369.2836914</ele>
        <time>2012-11-03T10:00:43Z</time>
      </trkpt>
      <trkpt lat="43.48845" lon="6.7948">
        <ele>367.8415527</ele>
        <time>2012-11-03T10:00:49Z</time>
      </trkpt>
      <trkpt lat="43.48835" lon="6.79491">
        <ele>367.3609619</ele>
        <time>2012-11-03T10:00:52Z</time>
      </trkpt>
      <trkpt lat="43.48826" lon="6.79503">
        <ele>365.9189453</ele>
        <time>2012-11-03T10:00:55Z</time>
      </trkpt>
      <trkpt lat="43.4882" lon="6.79511">
        <ele>365.9189453</ele>
        <time>2012-11-03T10:00:57Z</time>
      </trkpt>
      <trkpt lat="43.48811" lon="6.79523">
        <ele>364.4769287</ele>
        <time>2012-11-03T10:01:00Z</time>
      </trkpt>
      <trkpt lat="43.48797" lon="6.79542">
        <ele>363.9963379</ele>
        <time>2012-11-03T10:01:11Z</time>
      </trkpt>
      <trkpt lat="43.48796" lon="6.79544">
        <ele>363.5157471</ele>
        <time>2012-11-03T10:01:57Z</time>
      </trkpt>
      <trkpt lat="43.48797" lon="6.79542">
        <ele>362.5543213</ele>
        <time>2012-11-03T10:02:01Z</time>
      </trkpt>
      <trkpt lat="43.4879" lon="6.7951">
        <ele>360.151123</ele>
        <time>2012-11-03T10:02:06Z</time>
      </trkpt>
      <trkpt lat="43.4879" lon="6.79489">
        <ele>358.7089844</ele>
        <time>2012-11-03T10:02:09Z</time>
      </trkpt>
      <trkpt lat="43.4879" lon="6.79482">
        <ele>357.7478027</ele>
        <time>2012-11-03T10:02:10Z</time>
      </trkpt>
      <trkpt lat="43.4879" lon="6.79442">
        <ele>355.3444824</ele>
        <time>2012-11-03T10:02:16Z</time>
      </trkpt>
      <trkpt lat="43.48788" lon="6.79418">
        <ele>353.421875</ele>
        <time>2012-11-03T10:02:20Z</time>
      </trkpt>
      <trkpt lat="43.48787" lon="6.79404">
        <ele>351.4991455</ele>
        <time>2012-11-03T10:02:22Z</time>
      </trkpt>
      <trkpt lat="43.48784" lon="6.79378">
        <ele>349.5765381</ele>
        <time>2012-11-03T10:02:26Z</time>
      </trkpt>
      <trkpt lat="43.48776" lon="6.79347">
        <ele>347.1732178</ele>
        <time>2012-11-03T10:02:30Z</time>
      </trkpt>
      <trkpt lat="43.48771" lon="6.79332">
        <ele>345.7313232</ele>
        <time>2012-11-03T10:02:32Z</time>
      </trkpt>
      <trkpt lat="43.48764" lon="6.79313">
        <ele>344.2894287</ele>
        <time>2012-11-03T10:02:39Z</time>
      </trkpt>
      <trkpt lat="43.4876" lon="6.79309">
        <ele>343.8085938</ele>
        <time>2012-11-03T10:02:40Z</time>
      </trkpt>
      <trkpt lat="43.48752" lon="6.79317">
        <ele>342.84729</ele>
        <time>2012-11-03T10:02:46Z</time>
      </trkpt>
      <trkpt lat="43.48742" lon="6.79349">
        <ele>339.9633789</ele>
        <time>2012-11-03T10:02:53Z</time>
      </trkpt>
      <trkpt lat="43.48736" lon="6.79362">
        <ele>338.5214844</ele>
        <time>2012-11-03T10:02:56Z</time>
      </trkpt>
      <trkpt lat="43.48725" lon="6.79375">
        <ele>336.598877</ele>
        <time>2012-11-03T10:02:59Z</time>
      </trkpt>
      <trkpt lat="43.48706" lon="6.79391">
        <ele>334.6761475</ele>
        <time>2012-11-03T10:03:04Z</time>
      </trkpt>
      <trkpt lat="43.48681" lon="6.79399">
        <ele>332.2728271</ele>
        <time>2012-11-03T10:03:09Z</time>
      </trkpt>
      <trkpt lat="43.48651" lon="6.794">
        <ele>328.9083252</ele>
        <time>2012-11-03T10:03:14Z</time>
      </trkpt>
      <trkpt lat="43.48628" lon="6.79396">
        <ele>326.5048828</ele>
        <time>2012-11-03T10:03:18Z</time>
      </trkpt>
      <trkpt lat="43.4862" lon="6.79394">
        <ele>325.5435791</ele>
        <time>2012-11-03T10:03:20Z</time>
      </trkpt>
      <trkpt lat="43.4859" lon="6.79381">
        <ele>321.2177734</ele>
        <time>2012-11-03T10:03:28Z</time>
      </trkpt>
      <trkpt lat="43.48563" lon="6.79359">
        <ele>317.8530273</ele>
        <time>2012-11-03T10:03:37Z</time>
      </trkpt>
      <trkpt lat="43.4856" lon="6.79356">
        <ele>317.8530273</ele>
        <time>2012-11-03T10:03:38Z</time>
      </trkpt>
      <trkpt lat="43.4855" lon="6.79346">
        <ele>316.4110107</ele>
        <time>2012-11-03T10:03:41Z</time>
      </trkpt>
      <trkpt lat="43.48534" lon="6.79326">
        <ele>314.0078125</ele>
        <time>2012-11-03T10:03:47Z</time>
      </trkpt>
      <trkpt lat="43.48534" lon="6.79313">
        <ele>313.5272217</ele>
        <time>2012-11-03T10:03:53Z</time>
      </trkpt>
      <trkpt lat="43.48507" lon="6.79316">
        <ele>310.6430664</ele>
        <time>2012-11-03T10:04:01Z</time>
      </trkpt>
      <trkpt lat="43.48501" lon="6.79316">
        <ele>310.6430664</ele>
        <time>2012-11-03T10:04:02Z</time>
      </trkpt>
      <trkpt lat="43.48489" lon="6.79314">
        <ele>309.6818848</ele>
        <time>2012-11-03T10:04:04Z</time>
      </trkpt>
      <trkpt lat="43.48473" lon="6.79298">
        <ele>307.7592773</ele>
        <time>2012-11-03T10:04:08Z</time>
      </trkpt>
      <trkpt lat="43.48467" lon="6.79262">
        <ele>305.355957</ele>
        <time>2012-11-03T10:04:13Z</time>
      </trkpt>
      <trkpt lat="43.48459" lon="6.79215">
        <ele>301.0299072</ele>
        <time>2012-11-03T10:04:19Z</time>
      </trkpt>
      <trkpt lat="43.48457" lon="6.79207">
        <ele>301.0299072</ele>
        <time>2012-11-03T10:04:20Z</time>
      </trkpt>
      <trkpt lat="43.48456" lon="6.79199">
        <ele>300.0687256</ele>
        <time>2012-11-03T10:04:21Z</time>
      </trkpt>
      <trkpt lat="43.48452" lon="6.79169">
        <ele>298.626709</ele>
        <time>2012-11-03T10:04:25Z</time>
      </trkpt>
      <trkpt lat="43.4845" lon="6.79155">
        <ele>297.6654053</ele>
        <time>2012-11-03T10:04:27Z</time>
      </trkpt>
      <trkpt lat="43.48447" lon="6.79119">
        <ele>295.2619629</ele>
        <time>2012-11-03T10:04:32Z</time>
      </trkpt>
      <trkpt lat="43.48446" lon="6.79106">
        <ele>293.8200684</ele>
        <time>2012-11-03T10:04:34Z</time>
      </trkpt>
      <trkpt lat="43.48443" lon="6.79087">
        <ele>292.8587646</ele>
        <time>2012-11-03T10:04:37Z</time>
      </trkpt>
      <trkpt lat="43.48445" lon="6.79077">
        <ele>291.8974609</ele>
        <time>2012-11-03T10:04:39Z</time>
      </trkpt>
      <trkpt lat="43.48447" lon="6.79066">
        <ele>290.9361572</ele>
        <time>2012-11-03T10:04:41Z</time>
      </trkpt>
      <trkpt lat="43.48444" lon="6.79061">
        <ele>290.4555664</ele>
        <time>2012-11-03T10:04:50Z</time>
      </trkpt>
      <trkpt lat="43.48444" lon="6.79061">
        <ele>290.4555664</ele>
        <time>2012-11-03T10:07:42Z</time>
      </trkpt>
      <trkpt lat="43.48438" lon="6.79065">
        <ele>289.4941406</ele>
        <time>2012-11-03T10:07:45Z</time>
      </trkpt>
      <trkpt lat="43.48427" lon="6.79071">
        <ele>289.0135498</ele>
        <time>2012-11-03T10:07:48Z</time>
      </trkpt>
      <trkpt lat="43.48402" lon="6.79083">
        <ele>286.1295166</ele>
        <time>2012-11-03T10:07:53Z</time>
      </trkpt>
      <trkpt lat="43.48397" lon="6.79084">
        <ele>285.6488037</ele>
        <time>2012-11-03T10:07:54Z</time>
      </trkpt>
      <trkpt lat="43.48369" lon="6.79084">
        <ele>282.7650146</ele>
        <time>2012-11-03T10:08:00Z</time>
      </trkpt>
      <trkpt lat="43.48349" lon="6.79101">
        <ele>281.322998</ele>
        <time>2012-11-03T10:08:04Z</time>
      </trkpt>
      <trkpt lat="43.48333" lon="6.79107">
        <ele>278.9196777</ele>
        <time>2012-11-03T10:08:07Z</time>
      </trkpt>
      <trkpt lat="43.48305" lon="6.79114">
        <ele>275.5550537</ele>
        <time>2012-11-03T10:08:13Z</time>
      </trkpt>
      <trkpt lat="43.48299" lon="6.79116">
        <ele>275.5550537</ele>
        <time>2012-11-03T10:08:14Z</time>
      </trkpt>
      <trkpt lat="43.48292" lon="6.79117">
        <ele>274.59375</ele>
        <time>2012-11-03T10:08:15Z</time>
      </trkpt>
      <trkpt lat="43.48274" lon="6.79128">
        <ele>273.1518555</ele>
        <time>2012-11-03T10:08:18Z</time>
      </trkpt>
      <trkpt lat="43.4826" lon="6.79135">
        <ele>272.1904297</ele>
        <time>2012-11-03T10:08:21Z</time>
      </trkpt>
      <trkpt lat="43.48251" lon="6.79137">
        <ele>270.7484131</ele>
        <time>2012-11-03T10:08:23Z</time>
      </trkpt>
      <trkpt lat="43.48231" lon="6.79136">
        <ele>269.3065186</ele>
        <time>2012-11-03T10:08:27Z</time>
      </trkpt>
      <trkpt lat="43.48215" lon="6.7913">
        <ele>267.864502</ele>
        <time>2012-11-03T10:08:30Z</time>
      </trkpt>
      <trkpt lat="43.48184" lon="6.79125">
        <ele>264.4998779</ele>
        <time>2012-11-03T10:08:37Z</time>
      </trkpt>
      <trkpt lat="43.48141" lon="6.79116">
        <ele>259.6933594</ele>
        <time>2012-11-03T10:08:45Z</time>
      </trkpt>
      <trkpt lat="43.48119" lon="6.79106">
        <ele>258.2513428</ele>
        <time>2012-11-03T10:08:49Z</time>
      </trkpt>
      <trkpt lat="43.48109" lon="6.79108">
        <ele>257.2900391</ele>
        <time>2012-11-03T10:08:51Z</time>
      </trkpt>
      <trkpt lat="43.48086" lon="6.79118">
        <ele>254.8865967</ele>
        <time>2012-11-03T10:08:56Z</time>
      </trkpt>
      <trkpt lat="43.48077" lon="6.79121">
        <ele>253.925415</ele>
        <time>2012-11-03T10:08:58Z</time>
      </trkpt>
      <trkpt lat="43.48058" lon="6.79125">
        <ele>252.4833984</ele>
        <time>2012-11-03T10:09:02Z</time>
      </trkpt>
      <trkpt lat="43.48037" lon="6.79128">
        <ele>249.5994873</ele>
        <time>2012-11-03T10:09:06Z</time>
      </trkpt>
      <trkpt lat="43.48021" lon="6.7913">
        <ele>248.1575928</ele>
        <time>2012-11-03T10:09:09Z</time>
      </trkpt>
      <trkpt lat="43.48013" lon="6.79129">
        <ele>247.1960449</ele>
        <time>2012-11-03T10:09:12Z</time>
      </trkpt>
      <trkpt lat="43.48009" lon="6.79129">
        <ele>247.1960449</ele>
        <time>2012-11-03T10:09:20Z</time>
      </trkpt>
      <trkpt lat="43.48009" lon="6.79129">
        <ele>245.2734375</ele>
        <time>2012-11-03T10:09:36Z</time>
      </trkpt>
      <trkpt lat="43.47983" lon="6.79122">
        <ele>243.831543</ele>
        <time>2012-11-03T10:09:38Z</time>
      </trkpt>
      <trkpt lat="43.47966" lon="6.7912">
        <ele>241.4282227</ele>
        <time>2012-11-03T10:09:42Z</time>
      </trkpt>
      <trkpt lat="43.47958" lon="6.7912">
        <ele>239.9862061</ele>
        <time>2012-11-03T10:09:44Z</time>
      </trkpt>
      <trkpt lat="43.47954" lon="6.7912">
        <ele>239.0249023</ele>
        <time>2012-11-03T10:09:45Z</time>
      </trkpt>
      <trkpt lat="43.47935" lon="6.79124">
        <ele>235.6602783</ele>
        <time>2012-11-03T10:09:50Z</time>
      </trkpt>
      <trkpt lat="43.47931" lon="6.79125">
        <ele>235.6602783</ele>
        <time>2012-11-03T10:09:51Z</time>
      </trkpt>
      <trkpt lat="43.47911" lon="6.79127">
        <ele>233.2570801</ele>
        <time>2012-11-03T10:09:58Z</time>
      </trkpt>
      <trkpt lat="43.47895" lon="6.79127">
        <ele>229.4117432</ele>
        <time>2012-11-03T10:10:04Z</time>
      </trkpt>
      <trkpt lat="43.47892" lon="6.79126">
        <ele>229.4117432</ele>
        <time>2012-11-03T10:10:05Z</time>
      </trkpt>
      <trkpt lat="43.47878" lon="6.79117">
        <ele>226.527832</ele>
        <time>2012-11-03T10:10:11Z</time>
      </trkpt>
      <trkpt lat="43.4786" lon="6.79107">
        <ele>224.1245117</ele>
        <time>2012-11-03T10:10:19Z</time>
      </trkpt>
      <trkpt lat="43.47845" lon="6.791">
        <ele>221.2406006</ele>
        <time>2012-11-03T10:10:26Z</time>
      </trkpt>
      <trkpt lat="43.47832" lon="6.79101">
        <ele>219.798584</ele>
        <time>2012-11-03T10:10:30Z</time>
      </trkpt>
      <trkpt lat="43.47821" lon="6.79092">
        <ele>218.3565674</ele>
        <time>2012-11-03T10:10:35Z</time>
      </trkpt>
      <trkpt lat="43.47816" lon="6.79087">
        <ele>216.9146729</ele>
        <time>2012-11-03T10:10:37Z</time>
      </trkpt>
      <trkpt lat="43.47793" lon="6.79072">
        <ele>214.5112305</ele>
        <time>2012-11-03T10:10:43Z</time>
      </trkpt>
      <trkpt lat="43.47775" lon="6.7906">
        <ele>213.5500488</ele>
        <time>2012-11-03T10:10:49Z</time>
      </trkpt>
      <trkpt lat="43.47767" lon="6.7906">
        <ele>212.588623</ele>
        <time>2012-11-03T10:10:51Z</time>
      </trkpt>
      <trkpt lat="43.47758" lon="6.79046">
        <ele>210.6660156</ele>
        <time>2012-11-03T10:10:56Z</time>
      </trkpt>
      <trkpt lat="43.47735" lon="6.79036">
        <ele>208.7434082</ele>
        <time>2012-11-03T10:11:02Z</time>
      </trkpt>
      <trkpt lat="43.47731" lon="6.7903">
        <ele>207.7821045</ele>
        <time>2012-11-03T10:11:04Z</time>
      </trkpt>
      <trkpt lat="43.47729" lon="6.79016">
        <ele>206.8206787</ele>
        <time>2012-11-03T10:11:07Z</time>
      </trkpt>
      <trkpt lat="43.4772" lon="6.78992">
        <ele>204.8980713</ele>
        <time>2012-11-03T10:11:11Z</time>
      </trkpt>
      <trkpt lat="43.47705" lon="6.78955">
        <ele>202.494873</ele>
        <time>2012-11-03T10:11:17Z</time>
      </trkpt>
      <trkpt lat="43.47701" lon="6.78914">
        <ele>199.6108398</ele>
        <time>2012-11-03T10:11:23Z</time>
      </trkpt>
      <trkpt lat="43.477" lon="6.789">
        <ele>198.6495361</ele>
        <time>2012-11-03T10:11:25Z</time>
      </trkpt>
      <trkpt lat="43.47712" lon="6.78866">
        <ele>196.2463379</ele>
        <time>2012-11-03T10:11:30Z</time>
      </trkpt>
      <trkpt lat="43.47716" lon="6.7885">
        <ele>195.2849121</ele>
        <time>2012-11-03T10:11:32Z</time>
      </trkpt>
      <trkpt lat="43.47721" lon="6.7882">
        <ele>193.3623047</ele>
        <time>2012-11-03T10:11:36Z</time>
      </trkpt>
      <trkpt lat="43.47721" lon="6.78793">
        <ele>190.9589844</ele>
        <time>2012-11-03T10:11:40Z</time>
      </trkpt>
      <trkpt lat="43.47721" lon="6.78745">
        <ele>188.5557861</ele>
        <time>2012-11-03T10:11:48Z</time>
      </trkpt>
      <trkpt lat="43.47713" lon="6.78687">
        <ele>186.1524658</ele>
        <time>2012-11-03T10:11:59Z</time>
      </trkpt>
      <trkpt lat="43.47712" lon="6.78662">
        <ele>184.7105713</ele>
        <time>2012-11-03T10:12:03Z</time>
      </trkpt>
      <trkpt lat="43.47709" lon="6.78642">
        <ele>183.7490234</ele>
        <time>2012-11-03T10:12:06Z</time>
      </trkpt>
      <trkpt lat="43.4771" lon="6.78622">
        <ele>182.7878418</ele>
        <time>2012-11-03T10:12:09Z</time>
      </trkpt>
      <trkpt lat="43.47703" lon="6.78575">
        <ele>179.9038086</ele>
        <time>2012-11-03T10:12:16Z</time>
      </trkpt>
      <trkpt lat="43.47697" lon="6.78566">
        <ele>179.9038086</ele>
        <time>2012-11-03T10:12:18Z</time>
      </trkpt>
      <trkpt lat="43.47682" lon="6.78543">
        <ele>177.9812012</ele>
        <time>2012-11-03T10:12:23Z</time>
      </trkpt>
      <trkpt lat="43.47638" lon="6.78501">
        <ele>175.09729</ele>
        <time>2012-11-03T10:12:37Z</time>
      </trkpt>
      <trkpt lat="43.47603" lon="6.78501">
        <ele>173.1746826</ele>
        <time>2012-11-03T10:12:46Z</time>
      </trkpt>
      <trkpt lat="43.47569" lon="6.78506">
        <ele>170.2906494</ele>
        <time>2012-11-03T10:12:55Z</time>
      </trkpt>
      <trkpt lat="43.47557" lon="6.7851">
        <ele>170.2906494</ele>
        <time>2012-11-03T10:12:58Z</time>
      </trkpt>
      <trkpt lat="43.47544" lon="6.78522">
        <ele>168.8487549</ele>
        <time>2012-11-03T10:13:02Z</time>
      </trkpt>
      <trkpt lat="43.47514" lon="6.78523">
        <ele>166.9260254</ele>
        <time>2012-11-03T10:13:09Z</time>
      </trkpt>
      <trkpt lat="43.47488" lon="6.78522">
        <ele>164.5227051</ele>
        <time>2012-11-03T10:13:20Z</time>
      </trkpt>
      <trkpt lat="43.47462" lon="6.78527">
        <ele>163.0808105</ele>
        <time>2012-11-03T10:13:33Z</time>
      </trkpt>
      <trkpt lat="43.47429" lon="6.78542">
        <ele>161.1582031</ele>
        <time>2012-11-03T10:13:42Z</time>
      </trkpt>
      <trkpt lat="43.47414" lon="6.78557">
        <ele>159.7161865</ele>
        <time>2012-11-03T10:13:46Z</time>
      </trkpt>
      <trkpt lat="43.47412" lon="6.78586">
        <ele>158.2741699</ele>
        <time>2012-11-03T10:13:51Z</time>
      </trkpt>
      <trkpt lat="43.47417" lon="6.78603">
        <ele>157.3128662</ele>
        <time>2012-11-03T10:13:54Z</time>
      </trkpt>
      <trkpt lat="43.47415" lon="6.78629">
        <ele>156.8321533</ele>
        <time>2012-11-03T10:13:58Z</time>
      </trkpt>
      <trkpt lat="43.47417" lon="6.78671">
        <ele>153.9483643</ele>
        <time>2012-11-03T10:14:04Z</time>
      </trkpt>
      <trkpt lat="43.47417" lon="6.78686">
        <ele>153.4676514</ele>
        <time>2012-11-03T10:14:06Z</time>
      </trkpt>
      <trkpt lat="43.47417" lon="6.78717">
        <ele>152.0257568</ele>
        <time>2012-11-03T10:14:10Z</time>
      </trkpt>
      <trkpt lat="43.4741" lon="6.78756">
        <ele>149.6223145</ele>
        <time>2012-11-03T10:14:16Z</time>
      </trkpt>
      <trkpt lat="43.47406" lon="6.78762">
        <ele>149.6223145</ele>
        <time>2012-11-03T10:14:17Z</time>
      </trkpt>
      <trkpt lat="43.47394" lon="6.78783">
        <ele>148.1804199</ele>
        <time>2012-11-03T10:14:22Z</time>
      </trkpt>
      <trkpt lat="43.47401" lon="6.78795">
        <ele>147.2189941</ele>
        <time>2012-11-03T10:14:25Z</time>
      </trkpt>
      <trkpt lat="43.47424" lon="6.78819">
        <ele>144.8157959</ele>
        <time>2012-11-03T10:14:31Z</time>
      </trkpt>
      <trkpt lat="43.47448" lon="6.78837">
        <ele>143.3736572</ele>
        <time>2012-11-03T10:14:36Z</time>
      </trkpt>
      <trkpt lat="43.47443" lon="6.78859">
        <ele>142.4124756</ele>
        <time>2012-11-03T10:14:41Z</time>
      </trkpt>
      <trkpt lat="43.47434" lon="6.78864">
        <ele>141.4510498</ele>
        <time>2012-11-03T10:14:43Z</time>
      </trkpt>
      <trkpt lat="43.47418" lon="6.78873">
        <ele>140.970459</ele>
        <time>2012-11-03T10:14:46Z</time>
      </trkpt>
      <trkpt lat="43.47406" lon="6.78879">
        <ele>140.4898682</ele>
        <time>2012-11-03T10:14:48Z</time>
      </trkpt>
      <trkpt lat="43.47388" lon="6.78891">
        <ele>138.0865479</ele>
        <time>2012-11-03T10:14:51Z</time>
      </trkpt>
      <trkpt lat="43.47378" lon="6.78905">
        <ele>137.605835</ele>
        <time>2012-11-03T10:14:53Z</time>
      </trkpt>
      <trkpt lat="43.47369" lon="6.78921">
        <ele>136.1639404</ele>
        <time>2012-11-03T10:14:55Z</time>
      </trkpt>
      <trkpt lat="43.47361" lon="6.78944">
        <ele>135.6831055</ele>
        <time>2012-11-03T10:14:58Z</time>
      </trkpt>
      <trkpt lat="43.47364" lon="6.78993">
        <ele>138.0865479</ele>
        <time>2012-11-03T10:15:05Z</time>
      </trkpt>
      <trkpt lat="43.47369" lon="6.79003">
        <ele>139.0478516</ele>
        <time>2012-11-03T10:15:07Z</time>
      </trkpt>
      <trkpt lat="43.4741" lon="6.79075">
        <ele>142.8930664</ele>
        <time>2012-11-03T10:15:24Z</time>
      </trkpt>
      <trkpt lat="43.47427" lon="6.79103">
        <ele>144.8157959</ele>
        <time>2012-11-03T10:15:33Z</time>
      </trkpt>
      <trkpt lat="43.47418" lon="6.79122">
        <ele>145.7770996</ele>
        <time>2012-11-03T10:15:40Z</time>
      </trkpt>
      <trkpt lat="43.47399" lon="6.79133">
        <ele>146.7384033</ele>
        <time>2012-11-03T10:15:47Z</time>
      </trkpt>
      <trkpt lat="43.47385" lon="6.79148">
        <ele>147.699707</ele>
        <time>2012-11-03T10:15:53Z</time>
      </trkpt>
      <trkpt lat="43.47372" lon="6.79144">
        <ele>148.1804199</ele>
        <time>2012-11-03T10:15:58Z</time>
      </trkpt>
      <trkpt lat="43.47359" lon="6.79155">
        <ele>149.1416016</ele>
        <time>2012-11-03T10:16:04Z</time>
      </trkpt>
      <trkpt lat="43.47348" lon="6.79212">
        <ele>151.5449219</ele>
        <time>2012-11-03T10:16:21Z</time>
      </trkpt>
      <trkpt lat="43.47316" lon="6.79232">
        <ele>153.9483643</ele>
        <time>2012-11-03T10:16:37Z</time>
      </trkpt>
      <trkpt lat="43.47271" lon="6.79273">
        <ele>157.3128662</ele>
        <time>2012-11-03T10:17:00Z</time>
      </trkpt>
      <trkpt lat="43.47263" lon="6.79281">
        <ele>157.3128662</ele>
        <time>2012-11-03T10:17:05Z</time>
      </trkpt>
      <trkpt lat="43.47256" lon="6.79286">
        <ele>157.3128662</ele>
        <time>2012-11-03T10:17:18Z</time>
      </trkpt>
      <trkpt lat="43.47238" lon="6.79282">
        <ele>156.8321533</ele>
        <time>2012-11-03T10:17:28Z</time>
      </trkpt>
      <trkpt lat="43.47228" lon="6.7927">
        <ele>155.3902588</ele>
        <time>2012-11-03T10:17:31Z</time>
      </trkpt>
      <trkpt lat="43.47218" lon="6.79254">
        <ele>153.9483643</ele>
        <time>2012-11-03T10:17:34Z</time>
      </trkpt>
      <trkpt lat="43.4721" lon="6.79227">
        <ele>152.5063477</ele>
        <time>2012-11-03T10:17:38Z</time>
      </trkpt>
      <trkpt lat="43.47212" lon="6.79198">
        <ele>150.5836182</ele>
        <time>2012-11-03T10:17:42Z</time>
      </trkpt>
      <trkpt lat="43.47217" lon="6.79155">
        <ele>148.6610107</ele>
        <time>2012-11-03T10:17:47Z</time>
      </trkpt>
      <trkpt lat="43.47212" lon="6.79102">
        <ele>145.7770996</ele>
        <time>2012-11-03T10:17:53Z</time>
      </trkpt>
      <trkpt lat="43.47197" lon="6.79096">
        <ele>144.8157959</ele>
        <time>2012-11-03T10:17:58Z</time>
      </trkpt>
      <trkpt lat="43.47187" lon="6.7911">
        <ele>142.8930664</ele>
        <time>2012-11-03T10:18:01Z</time>
      </trkpt>
      <trkpt lat="43.47177" lon="6.79128">
        <ele>140.970459</ele>
        <time>2012-11-03T10:18:04Z</time>
      </trkpt>
      <trkpt lat="43.47157" lon="6.79129">
        <ele>140.4898682</ele>
        <time>2012-11-03T10:18:09Z</time>
      </trkpt>
      <trkpt lat="43.47136" lon="6.79131">
        <ele>138.5672607</ele>
        <time>2012-11-03T10:18:14Z</time>
      </trkpt>
      <trkpt lat="43.47114" lon="6.79116">
        <ele>137.1252441</ele>
        <time>2012-11-03T10:18:19Z</time>
      </trkpt>
      <trkpt lat="43.47106" lon="6.79105">
        <ele>135.6831055</ele>
        <time>2012-11-03T10:18:21Z</time>
      </trkpt>
      <trkpt lat="43.47082" lon="6.79081">
        <ele>134.2412109</ele>
        <time>2012-11-03T10:18:26Z</time>
      </trkpt>
      <trkpt lat="43.47073" lon="6.79061">
        <ele>132.3186035</ele>
        <time>2012-11-03T10:18:29Z</time>
      </trkpt>
      <trkpt lat="43.47065" lon="6.79036">
        <ele>131.8378906</ele>
        <time>2012-11-03T10:18:33Z</time>
      </trkpt>
      <trkpt lat="43.47062" lon="6.79022">
        <ele>130.3959961</ele>
        <time>2012-11-03T10:18:35Z</time>
      </trkpt>
      <trkpt lat="43.47059" lon="6.79015">
        <ele>129.9152832</ele>
        <time>2012-11-03T10:18:36Z</time>
      </trkpt>
      <trkpt lat="43.47055" lon="6.78998">
        <ele>128.9541016</ele>
        <time>2012-11-03T10:18:38Z</time>
      </trkpt>
      <trkpt lat="43.47046" lon="6.78986">
        <ele>127.9925537</ele>
        <time>2012-11-03T10:18:40Z</time>
      </trkpt>
      <trkpt lat="43.47027" lon="6.78977">
        <ele>125.5893555</ele>
        <time>2012-11-03T10:18:44Z</time>
      </trkpt>
      <trkpt lat="43.46997" lon="6.78957">
        <ele>124.1473389</ele>
        <time>2012-11-03T10:18:50Z</time>
      </trkpt>
      <trkpt lat="43.46987" lon="6.78948">
        <ele>123.1861572</ele>
        <time>2012-11-03T10:18:52Z</time>
      </trkpt>
      <trkpt lat="43.46976" lon="6.7894">
        <ele>122.2247314</ele>
        <time>2012-11-03T10:18:54Z</time>
      </trkpt>
      <trkpt lat="43.46947" lon="6.78939">
        <ele>120.302124</ele>
        <time>2012-11-03T10:19:00Z</time>
      </trkpt>
      <trkpt lat="43.46907" lon="6.78955">
        <ele>119.8214111</ele>
        <time>2012-11-03T10:19:08Z</time>
      </trkpt>
      <trkpt lat="43.4689" lon="6.78979">
        <ele>119.8214111</ele>
        <time>2012-11-03T10:19:13Z</time>
      </trkpt>
      <trkpt lat="43.46866" lon="6.79023">
        <ele>117.8988037</ele>
        <time>2012-11-03T10:19:20Z</time>
      </trkpt>
      <trkpt lat="43.4686" lon="6.79037">
        <ele>117.4182129</ele>
        <time>2012-11-03T10:19:22Z</time>
      </trkpt>
      <trkpt lat="43.46855" lon="6.79078">
        <ele>116.4567871</ele>
        <time>2012-11-03T10:19:28Z</time>
      </trkpt>
      <trkpt lat="43.46874" lon="6.79114">
        <ele>115.4956055</ele>
        <time>2012-11-03T10:19:34Z</time>
      </trkpt>
      <trkpt lat="43.46888" lon="6.79122">
        <ele>115.0148926</ele>
        <time>2012-11-03T10:19:37Z</time>
      </trkpt>
      <trkpt lat="43.46905" lon="6.7913">
        <ele>114.5341797</ele>
        <time>2012-11-03T10:19:41Z</time>
      </trkpt>
      <trkpt lat="43.46902" lon="6.79144">
        <ele>114.5341797</ele>
        <time>2012-11-03T10:19:45Z</time>
      </trkpt>
      <trkpt lat="43.46893" lon="6.79156">
        <ele>114.5341797</ele>
        <time>2012-11-03T10:19:48Z</time>
      </trkpt>
      <trkpt lat="43.46865" lon="6.79191">
        <ele>113.0922852</ele>
        <time>2012-11-03T10:19:55Z</time>
      </trkpt>
      <trkpt lat="43.46846" lon="6.79239">
        <ele>112.1309814</ele>
        <time>2012-11-03T10:20:03Z</time>
      </trkpt>
      <trkpt lat="43.46844" lon="6.79254">
        <ele>112.1309814</ele>
        <time>2012-11-03T10:20:05Z</time>
      </trkpt>
      <trkpt lat="43.46847" lon="6.79264">
        <ele>112.1309814</ele>
        <time>2012-11-03T10:20:10Z</time>
      </trkpt>
      <trkpt lat="43.46858" lon="6.79265">
        <ele>113.0922852</ele>
        <time>2012-11-03T10:20:19Z</time>
      </trkpt>
      <trkpt lat="43.46856" lon="6.79241">
        <ele>112.6115723</ele>
        <time>2012-11-03T10:20:31Z</time>
      </trkpt>
      <trkpt lat="43.46856" lon="6.79241">
        <ele>113.0922852</ele>
        <time>2012-11-03T10:23:06Z</time>
      </trkpt>
      <trkpt lat="43.46922" lon="6.79251">
        <ele>113.572998</ele>
        <time>2012-11-03T10:23:28Z</time>
      </trkpt>
      <trkpt lat="43.4695" lon="6.79244">
        <ele>114.0535889</ele>
        <time>2012-11-03T10:23:38Z</time>
      </trkpt>
      <trkpt lat="43.46955" lon="6.7926">
        <ele>114.5341797</ele>
        <time>2012-11-03T10:23:44Z</time>
      </trkpt>
      <trkpt lat="43.46923" lon="6.7933">
        <ele>115.9761963</ele>
        <time>2012-11-03T10:24:04Z</time>
      </trkpt>
      <trkpt lat="43.46921" lon="6.79338">
        <ele>115.9761963</ele>
        <time>2012-11-03T10:24:06Z</time>
      </trkpt>
      <trkpt lat="43.46923" lon="6.79356">
        <ele>115.9761963</ele>
        <time>2012-11-03T10:24:11Z</time>
      </trkpt>
      <trkpt lat="43.46933" lon="6.79366">
        <ele>116.4567871</ele>
        <time>2012-11-03T10:24:15Z</time>
      </trkpt>
      <trkpt lat="43.46934" lon="6.79382">
        <ele>116.9375</ele>
        <time>2012-11-03T10:24:19Z</time>
      </trkpt>
      <trkpt lat="43.46912" lon="6.79486">
        <ele>117.8988037</ele>
        <time>2012-11-03T10:24:43Z</time>
      </trkpt>
      <trkpt lat="43.46928" lon="6.79497">
        <ele>118.8601074</ele>
        <time>2012-11-03T10:24:51Z</time>
      </trkpt>
      <trkpt lat="43.46975" lon="6.79475">
        <ele>121.7441406</ele>
        <time>2012-11-03T10:25:11Z</time>
      </trkpt>
      <trkpt lat="43.47016" lon="6.79454">
        <ele>125.1087646</ele>
        <time>2012-11-03T10:25:32Z</time>
      </trkpt>
      <trkpt lat="43.47051" lon="6.79437">
        <ele>127.5119629</ele>
        <time>2012-11-03T10:25:51Z</time>
      </trkpt>
      <trkpt lat="43.47066" lon="6.79427">
        <ele>128.4733887</ele>
        <time>2012-11-03T10:25:59Z</time>
      </trkpt>
      <trkpt lat="43.4707" lon="6.79462">
        <ele>129.4346924</ele>
        <time>2012-11-03T10:26:14Z</time>
      </trkpt>
      <trkpt lat="43.47051" lon="6.79522">
        <ele>132.7993164</ele>
        <time>2012-11-03T10:26:37Z</time>
      </trkpt>
      <trkpt lat="43.47038" lon="6.79572">
        <ele>134.7219238</ele>
        <time>2012-11-03T10:26:57Z</time>
      </trkpt>
      <trkpt lat="43.47077" lon="6.79588">
        <ele>137.605835</ele>
        <time>2012-11-03T10:27:17Z</time>
      </trkpt>
      <trkpt lat="43.47109" lon="6.79593">
        <ele>140.0091553</ele>
        <time>2012-11-03T10:27:38Z</time>
      </trkpt>
      <trkpt lat="43.47109" lon="6.79593">
        <ele>140.970459</ele>
        <time>2012-11-03T10:27:54Z</time>
      </trkpt>
      <trkpt lat="43.47109" lon="6.79593">
        <ele>140.0091553</ele>
        <time>2012-11-03T10:28:11Z</time>
      </trkpt>
      <trkpt lat="43.47139" lon="6.79564">
        <ele>141.9317627</ele>
        <time>2012-11-03T10:28:29Z</time>
      </trkpt>
      <trkpt lat="43.47155" lon="6.79508">
        <ele>144.3352051</ele>
        <time>2012-11-03T10:28:50Z</time>
      </trkpt>
      <trkpt lat="43.47158" lon="6.79489">
        <ele>145.2963867</ele>
        <time>2012-11-03T10:28:57Z</time>
      </trkpt>
      <trkpt lat="43.47158" lon="6.79481">
        <ele>145.2963867</ele>
        <time>2012-11-03T10:29:00Z</time>
      </trkpt>
      <trkpt lat="43.4717" lon="6.79421">
        <ele>149.1416016</ele>
        <time>2012-11-03T10:29:22Z</time>
      </trkpt>
      <trkpt lat="43.47183" lon="6.79371">
        <ele>151.5449219</ele>
        <time>2012-11-03T10:29:42Z</time>
      </trkpt>
      <trkpt lat="43.47211" lon="6.79317">
        <ele>153.9483643</ele>
        <time>2012-11-03T10:30:07Z</time>
      </trkpt>
      <trkpt lat="43.47258" lon="6.79291">
        <ele>156.8321533</ele>
        <time>2012-11-03T10:30:31Z</time>
      </trkpt>
      <trkpt lat="43.473" lon="6.79321">
        <ele>158.2741699</ele>
        <time>2012-11-03T10:30:52Z</time>
      </trkpt>
      <trkpt lat="43.47306" lon="6.79382">
        <ele>159.2354736</ele>
        <time>2012-11-03T10:31:11Z</time>
      </trkpt>
      <trkpt lat="43.47302" lon="6.79456">
        <ele>161.1582031</ele>
        <time>2012-11-03T10:31:33Z</time>
      </trkpt>
      <trkpt lat="43.47319" lon="6.79519">
        <ele>162.1195068</ele>
        <time>2012-11-03T10:31:53Z</time>
      </trkpt>
      <trkpt lat="43.47333" lon="6.79596">
        <ele>164.0421143</ele>
        <time>2012-11-03T10:32:17Z</time>
      </trkpt>
      <trkpt lat="43.47373" lon="6.79632">
        <ele>165.4841309</ele>
        <time>2012-11-03T10:32:37Z</time>
      </trkpt>
      <trkpt lat="43.47424" lon="6.79635">
        <ele>166.9260254</ele>
        <time>2012-11-03T10:32:57Z</time>
      </trkpt>
      <trkpt lat="43.47465" lon="6.79608">
        <ele>167.8873291</ele>
        <time>2012-11-03T10:33:16Z</time>
      </trkpt>
      <trkpt lat="43.47493" lon="6.79552">
        <ele>169.3294678</ele>
        <time>2012-11-03T10:33:36Z</time>
      </trkpt>
      <trkpt lat="43.47515" lon="6.79512">
        <ele>171.2520752</ele>
        <time>2012-11-03T10:33:51Z</time>
      </trkpt>
      <trkpt lat="43.47564" lon="6.79472">
        <ele>172.2132568</ele>
        <time>2012-11-03T10:34:12Z</time>
      </trkpt>
      <trkpt lat="43.47608" lon="6.79438">
        <ele>173.6552734</ele>
        <time>2012-11-03T10:34:32Z</time>
      </trkpt>
      <trkpt lat="43.47642" lon="6.79409">
        <ele>174.6165771</ele>
        <time>2012-11-03T10:34:49Z</time>
      </trkpt>
      <trkpt lat="43.47697" lon="6.79393">
        <ele>176.0585938</ele>
        <time>2012-11-03T10:35:13Z</time>
      </trkpt>
      <trkpt lat="43.47751" lon="6.79406">
        <ele>177.9812012</ele>
        <time>2012-11-03T10:35:35Z</time>
      </trkpt>
      <trkpt lat="43.47804" lon="6.79396">
        <ele>178.4619141</ele>
        <time>2012-11-03T10:35:54Z</time>
      </trkpt>
      <trkpt lat="43.47843" lon="6.79379">
        <ele>177.0200195</ele>
        <time>2012-11-03T10:36:05Z</time>
      </trkpt>
      <trkpt lat="43.47887" lon="6.79359">
        <ele>177.0200195</ele>
        <time>2012-11-03T10:36:17Z</time>
      </trkpt>
      <trkpt lat="43.47934" lon="6.79338">
        <ele>179.4232178</ele>
        <time>2012-11-03T10:36:33Z</time>
      </trkpt>
      <trkpt lat="43.47968" lon="6.79323">
        <ele>181.3458252</ele>
        <time>2012-11-03T10:36:49Z</time>
      </trkpt>
      <trkpt lat="43.47982" lon="6.7932">
        <ele>182.3071289</ele>
        <time>2012-11-03T10:36:55Z</time>
      </trkpt>
      <trkpt lat="43.48019" lon="6.7932">
        <ele>184.2298584</ele>
        <time>2012-11-03T10:37:13Z</time>
      </trkpt>
      <trkpt lat="43.48054" lon="6.79309">
        <ele>187.5943604</ele>
        <time>2012-11-03T10:37:31Z</time>
      </trkpt>
      <trkpt lat="43.48055" lon="6.79308">
        <ele>187.5943604</ele>
        <time>2012-11-03T10:37:32Z</time>
      </trkpt>
      <trkpt lat="43.48063" lon="6.79296">
        <ele>188.0750732</ele>
        <time>2012-11-03T10:37:38Z</time>
      </trkpt>
      <trkpt lat="43.4808" lon="6.79297">
        <ele>189.036377</ele>
        <time>2012-11-03T10:37:47Z</time>
      </trkpt>
      <trkpt lat="43.48109" lon="6.79317">
        <ele>191.4395752</ele>
        <time>2012-11-03T10:38:03Z</time>
      </trkpt>
      <trkpt lat="43.48139" lon="6.79306">
        <ele>193.3623047</ele>
        <time>2012-11-03T10:38:19Z</time>
      </trkpt>
      <trkpt lat="43.4816" lon="6.79316">
        <ele>194.3237305</ele>
        <time>2012-11-03T10:38:30Z</time>
      </trkpt>
      <trkpt lat="43.48212" lon="6.7934">
        <ele>198.1689453</ele>
        <time>2012-11-03T10:38:55Z</time>
      </trkpt>
      <trkpt lat="43.48222" lon="6.7934">
        <ele>198.6495361</ele>
        <time>2012-11-03T10:39:00Z</time>
      </trkpt>
      <trkpt lat="43.48263" lon="6.79324">
        <ele>201.5335693</ele>
        <time>2012-11-03T10:39:20Z</time>
      </trkpt>
      <trkpt lat="43.48293" lon="6.79304">
        <ele>203.9368896</ele>
        <time>2012-11-03T10:39:37Z</time>
      </trkpt>
      <trkpt lat="43.48296" lon="6.79336">
        <ele>204.8980713</ele>
        <time>2012-11-03T10:39:49Z</time>
      </trkpt>
      <trkpt lat="43.48313" lon="6.79373">
        <ele>207.3013916</ele>
        <time>2012-11-03T10:40:05Z</time>
      </trkpt>
      <trkpt lat="43.48331" lon="6.79417">
        <ele>209.704834</ele>
        <time>2012-11-03T10:40:23Z</time>
      </trkpt>
      <trkpt lat="43.48341" lon="6.79442">
        <ele>211.1467285</ele>
        <time>2012-11-03T10:40:33Z</time>
      </trkpt>
      <trkpt lat="43.48333" lon="6.79459">
        <ele>212.588623</ele>
        <time>2012-11-03T10:40:43Z</time>
      </trkpt>
      <trkpt lat="43.48325" lon="6.79458">
        <ele>213.0693359</ele>
        <time>2012-11-03T10:40:48Z</time>
      </trkpt>
      <trkpt lat="43.48278" lon="6.7944">
        <ele>215.9532471</ele>
        <time>2012-11-03T10:41:12Z</time>
      </trkpt>
      <trkpt lat="43.48237" lon="6.79449">
        <ele>219.3179932</ele>
        <time>2012-11-03T10:41:32Z</time>
      </trkpt>
      <trkpt lat="43.48195" lon="6.79475">
        <ele>221.7211914</ele>
        <time>2012-11-03T10:41:55Z</time>
      </trkpt>
      <trkpt lat="43.48155" lon="6.79507">
        <ele>224.6052246</ele>
        <time>2012-11-03T10:42:17Z</time>
      </trkpt>
      <trkpt lat="43.48117" lon="6.79538">
        <ele>227.9697266</ele>
        <time>2012-11-03T10:42:38Z</time>
      </trkpt>
      <trkpt lat="43.48088" lon="6.79597">
        <ele>230.8537598</ele>
        <time>2012-11-03T10:43:02Z</time>
      </trkpt>
      <trkpt lat="43.48091" lon="6.79662">
        <ele>233.7376709</ele>
        <time>2012-11-03T10:43:24Z</time>
      </trkpt>
      <trkpt lat="43.48106" lon="6.79721">
        <ele>236.6217041</ele>
        <time>2012-11-03T10:43:46Z</time>
      </trkpt>
      <trkpt lat="43.48111" lon="6.79747">
        <ele>237.5828857</ele>
        <time>2012-11-03T10:43:55Z</time>
      </trkpt>
      <trkpt lat="43.48112" lon="6.79758">
        <ele>238.5443115</ele>
        <time>2012-11-03T10:43:59Z</time>
      </trkpt>
      <trkpt lat="43.48095" lon="6.79819">
        <ele>241.9089355</ele>
        <time>2012-11-03T10:44:22Z</time>
      </trkpt>
      <trkpt lat="43.48067" lon="6.79867">
        <ele>245.2734375</ele>
        <time>2012-11-03T10:44:44Z</time>
      </trkpt>
      <trkpt lat="43.48048" lon="6.79911">
        <ele>247.6767578</ele>
        <time>2012-11-03T10:45:04Z</time>
      </trkpt>
      <trkpt lat="43.48087" lon="6.79943">
        <ele>248.6381836</ele>
        <time>2012-11-03T10:45:21Z</time>
      </trkpt>
      <trkpt lat="43.48126" lon="6.79986">
        <ele>251.0413818</ele>
        <time>2012-11-03T10:45:44Z</time>
      </trkpt>
      <trkpt lat="43.48134" lon="6.79995">
        <ele>251.5220947</ele>
        <time>2012-11-03T10:45:49Z</time>
      </trkpt>
      <trkpt lat="43.48163" lon="6.80021">
        <ele>252.9639893</ele>
        <time>2012-11-03T10:46:06Z</time>
      </trkpt>
      <trkpt lat="43.48205" lon="6.80049">
        <ele>255.3673096</ele>
        <time>2012-11-03T10:46:28Z</time>
      </trkpt>
      <trkpt lat="43.48252" lon="6.80062">
        <ele>257.770752</ele>
        <time>2012-11-03T10:46:50Z</time>
      </trkpt>
      <trkpt lat="43.48285" lon="6.80057">
        <ele>258.7319336</ele>
        <time>2012-11-03T10:47:06Z</time>
      </trkpt>
      <trkpt lat="43.48292" lon="6.80055">
        <ele>259.2126465</ele>
        <time>2012-11-03T10:47:09Z</time>
      </trkpt>
      <trkpt lat="43.48325" lon="6.80038">
        <ele>260.654541</ele>
        <time>2012-11-03T10:47:26Z</time>
      </trkpt>
      <trkpt lat="43.48332" lon="6.80033">
        <ele>261.1352539</ele>
        <time>2012-11-03T10:47:30Z</time>
      </trkpt>
      <trkpt lat="43.48371" lon="6.80003">
        <ele>263.5385742</ele>
        <time>2012-11-03T10:47:50Z</time>
      </trkpt>
      <trkpt lat="43.48395" lon="6.79979">
        <ele>264.9805908</ele>
        <time>2012-11-03T10:48:04Z</time>
      </trkpt>
      <trkpt lat="43.48422" lon="6.79932">
        <ele>266.9031982</ele>
        <time>2012-11-03T10:48:24Z</time>
      </trkpt>
      <trkpt lat="43.48442" lon="6.79957">
        <ele>267.864502</ele>
        <time>2012-11-03T10:48:37Z</time>
      </trkpt>
      <trkpt lat="43.48476" lon="6.80007">
        <ele>270.7484131</ele>
        <time>2012-11-03T10:49:01Z</time>
      </trkpt>
      <trkpt lat="43.48486" lon="6.80054">
        <ele>272.1904297</ele>
        <time>2012-11-03T10:49:18Z</time>
      </trkpt>
      <trkpt lat="43.48487" lon="6.80059">
        <ele>272.6711426</ele>
        <time>2012-11-03T10:49:20Z</time>
      </trkpt>
      <trkpt lat="43.48491" lon="6.80078">
        <ele>273.1518555</ele>
        <time>2012-11-03T10:49:27Z</time>
      </trkpt>
      <trkpt lat="43.48516" lon="6.80133">
        <ele>275.0744629</ele>
        <time>2012-11-03T10:49:49Z</time>
      </trkpt>
      <trkpt lat="43.48544" lon="6.80175">
        <ele>276.9970703</ele>
        <time>2012-11-03T10:50:09Z</time>
      </trkpt>
      <trkpt lat="43.48583" lon="6.80221">
        <ele>279.4002686</ele>
        <time>2012-11-03T10:50:33Z</time>
      </trkpt>
      <trkpt lat="43.48626" lon="6.80268">
        <ele>282.2843018</ele>
        <time>2012-11-03T10:50:59Z</time>
      </trkpt>
      <trkpt lat="43.48666" lon="6.80302">
        <ele>284.6876221</ele>
        <time>2012-11-03T10:51:20Z</time>
      </trkpt>
      <trkpt lat="43.48704" lon="6.80343">
        <ele>286.6102295</ele>
        <time>2012-11-03T10:51:43Z</time>
      </trkpt>
      <trkpt lat="43.48739" lon="6.80305">
        <ele>289.0135498</ele>
        <time>2012-11-03T10:52:04Z</time>
      </trkpt>
      <trkpt lat="43.48754" lon="6.80244">
        <ele>290.4555664</ele>
        <time>2012-11-03T10:52:25Z</time>
      </trkpt>
      <trkpt lat="43.48773" lon="6.80188">
        <ele>292.8587646</ele>
        <time>2012-11-03T10:52:45Z</time>
      </trkpt>
      <trkpt lat="43.48783" lon="6.80136">
        <ele>294.7813721</ele>
        <time>2012-11-03T10:53:04Z</time>
      </trkpt>
      <trkpt lat="43.48779" lon="6.80069">
        <ele>297.1846924</ele>
        <time>2012-11-03T10:53:27Z</time>
      </trkpt>
      <trkpt lat="43.48751" lon="6.80007">
        <ele>299.5880127</ele>
        <time>2012-11-03T10:53:51Z</time>
      </trkpt>
      <trkpt lat="43.4873" lon="6.79952">
        <ele>301.5106201</ele>
        <time>2012-11-03T10:54:12Z</time>
      </trkpt>
      <trkpt lat="43.48742" lon="6.79878">
        <ele>303.9139404</ele>
        <time>2012-11-03T10:54:37Z</time>
      </trkpt>
      <trkpt lat="43.48788" lon="6.79834">
        <ele>306.3172607</ele>
        <time>2012-11-03T10:55:01Z</time>
      </trkpt>
      <trkpt lat="43.48796" lon="6.79826">
        <ele>306.7978516</ele>
        <time>2012-11-03T10:55:18Z</time>
      </trkpt>
      <trkpt lat="43.48813" lon="6.79801">
        <ele>307.7592773</ele>
        <time>2012-11-03T10:55:35Z</time>
      </trkpt>
      <trkpt lat="43.48833" lon="6.79754">
        <ele>309.6818848</ele>
        <time>2012-11-03T10:55:55Z</time>
      </trkpt>
      <trkpt lat="43.48853" lon="6.79692">
        <ele>312.0852051</ele>
        <time>2012-11-03T10:56:18Z</time>
      </trkpt>
      <trkpt lat="43.48872" lon="6.79614">
        <ele>314.4884033</ele>
        <time>2012-11-03T10:56:43Z</time>
      </trkpt>
      <trkpt lat="43.48887" lon="6.79566">
        <ele>316.4110107</ele>
        <time>2012-11-03T10:56:58Z</time>
      </trkpt>
      <trkpt lat="43.48904" lon="6.79569">
        <ele>317.3724365</ele>
        <time>2012-11-03T10:57:05Z</time>
      </trkpt>
      <trkpt lat="43.48944" lon="6.79606">
        <ele>318.8143311</ele>
        <time>2012-11-03T10:57:25Z</time>
      </trkpt>
      <trkpt lat="43.48996" lon="6.79597">
        <ele>321.6983643</ele>
        <time>2012-11-03T10:57:47Z</time>
      </trkpt>
      <trkpt lat="43.49019" lon="6.79618">
        <ele>322.659668</ele>
        <time>2012-11-03T10:57:59Z</time>
      </trkpt>
      <trkpt lat="43.49037" lon="6.79682">
        <ele>325.0629883</ele>
        <time>2012-11-03T10:58:19Z</time>
      </trkpt>
      <trkpt lat="43.49047" lon="6.79752">
        <ele>326.9855957</ele>
        <time>2012-11-03T10:58:41Z</time>
      </trkpt>
      <trkpt lat="43.49086" lon="6.79809">
        <ele>329.388916</ele>
        <time>2012-11-03T10:59:03Z</time>
      </trkpt>
      <trkpt lat="43.49125" lon="6.79864">
        <ele>331.7921143</ele>
        <time>2012-11-03T10:59:22Z</time>
      </trkpt>
      <trkpt lat="43.49144" lon="6.79927">
        <ele>333.7147217</ele>
        <time>2012-11-03T10:59:39Z</time>
      </trkpt>
      <trkpt lat="43.49169" lon="6.79986">
        <ele>336.598877</ele>
        <time>2012-11-03T10:59:58Z</time>
      </trkpt>
      <trkpt lat="43.49204" lon="6.80005">
        <ele>338.5214844</ele>
        <time>2012-11-03T11:00:11Z</time>
      </trkpt>
      <trkpt lat="43.49249" lon="6.80022">
        <ele>340.9246826</ele>
        <time>2012-11-03T11:00:27Z</time>
      </trkpt>
      <trkpt lat="43.49291" lon="6.8001">
        <ele>341.8859863</ele>
        <time>2012-11-03T11:00:42Z</time>
      </trkpt>
      <trkpt lat="43.49347" lon="6.80042">
        <ele>344.7700195</ele>
        <time>2012-11-03T11:01:01Z</time>
      </trkpt>
      <trkpt lat="43.49397" lon="6.80081">
        <ele>346.692627</ele>
        <time>2012-11-03T11:01:19Z</time>
      </trkpt>
      <trkpt lat="43.49413" lon="6.80138">
        <ele>348.6152344</ele>
        <time>2012-11-03T11:01:34Z</time>
      </trkpt>
      <trkpt lat="43.49444" lon="6.802">
        <ele>351.0184326</ele>
        <time>2012-11-03T11:01:53Z</time>
      </trkpt>
      <trkpt lat="43.49501" lon="6.80194">
        <ele>353.421875</ele>
        <time>2012-11-03T11:02:12Z</time>
      </trkpt>
      <trkpt lat="43.49553" lon="6.80172">
        <ele>355.8251953</ele>
        <time>2012-11-03T11:02:31Z</time>
      </trkpt>
      <trkpt lat="43.49558" lon="6.80171">
        <ele>356.3057861</ele>
        <time>2012-11-03T11:02:33Z</time>
      </trkpt>
      <trkpt lat="43.49604" lon="6.80164">
        <ele>355.8251953</ele>
        <time>2012-11-03T11:02:50Z</time>
      </trkpt>
      <trkpt lat="43.49628" lon="6.80163">
        <ele>359.1896973</ele>
        <time>2012-11-03T11:03:03Z</time>
      </trkpt>
      <trkpt lat="43.49629" lon="6.80163">
        <ele>359.1896973</ele>
        <time>2012-11-03T11:03:04Z</time>
      </trkpt>
      <trkpt lat="43.49633" lon="6.80163">
        <ele>360.151123</ele>
        <time>2012-11-03T11:03:08Z</time>
      </trkpt>
      <trkpt lat="43.49639" lon="6.80203">
        <ele>362.0737305</ele>
        <time>2012-11-03T11:03:16Z</time>
      </trkpt>
      <trkpt lat="43.49642" lon="6.80208">
        <ele>363.5157471</ele>
        <time>2012-11-03T11:03:24Z</time>
      </trkpt>
      <trkpt lat="43.49642" lon="6.80208">
        <ele>365.4383545</ele>
        <time>2012-11-03T11:03:41Z</time>
      </trkpt>
      <trkpt lat="43.49642" lon="6.80208">
        <ele>367.3609619</ele>
        <time>2012-11-03T11:04:01Z</time>
      </trkpt>
      <trkpt lat="43.49642" lon="6.80208">
        <ele>366.880249</ele>
        <time>2012-11-03T11:04:07Z</time>
      </trkpt>
      <trkpt lat="43.49686" lon="6.80177">
        <ele>364.4769287</ele>
        <time>2012-11-03T11:04:18Z</time>
      </trkpt>
      <trkpt lat="43.49698" lon="6.80161">
        <ele>362.5543213</ele>
        <time>2012-11-03T11:04:21Z</time>
      </trkpt>
      <trkpt lat="43.49721" lon="6.80134">
        <ele>360.151123</ele>
        <time>2012-11-03T11:04:26Z</time>
      </trkpt>
      <trkpt lat="43.4973" lon="6.80119">
        <ele>358.2283936</ele>
        <time>2012-11-03T11:04:29Z</time>
      </trkpt>
      <trkpt lat="43.49742" lon="6.80104">
        <ele>356.786377</ele>
        <time>2012-11-03T11:04:32Z</time>
      </trkpt>
      <trkpt lat="43.49754" lon="6.80087">
        <ele>353.9025879</ele>
        <time>2012-11-03T11:04:35Z</time>
      </trkpt>
      <trkpt lat="43.49761" lon="6.80074">
        <ele>352.9411621</ele>
        <time>2012-11-03T11:04:37Z</time>
      </trkpt>
      <trkpt lat="43.49801" lon="6.80045">
        <ele>351.9798584</ele>
        <time>2012-11-03T11:04:47Z</time>
      </trkpt>
      <trkpt lat="43.49822" lon="6.80007">
        <ele>351.0184326</ele>
        <time>2012-11-03T11:04:58Z</time>
      </trkpt>
      <trkpt lat="43.49835" lon="6.79985">
        <ele>347.6539307</ele>
        <time>2012-11-03T11:05:04Z</time>
      </trkpt>
      <trkpt lat="43.49839" lon="6.79981">
        <ele>347.6539307</ele>
        <time>2012-11-03T11:05:05Z</time>
      </trkpt>
      <trkpt lat="43.49855" lon="6.7996">
        <ele>343.8085938</ele>
        <time>2012-11-03T11:05:11Z</time>
      </trkpt>
      <trkpt lat="43.49858" lon="6.79956">
        <ele>343.8085938</ele>
        <time>2012-11-03T11:05:12Z</time>
      </trkpt>
      <trkpt lat="43.49861" lon="6.79953">
        <ele>342.3666992</ele>
        <time>2012-11-03T11:05:13Z</time>
      </trkpt>
      <trkpt lat="43.49867" lon="6.79945">
        <ele>341.8859863</ele>
        <time>2012-11-03T11:05:15Z</time>
      </trkpt>
      <trkpt lat="43.49884" lon="6.79923">
        <ele>339.9633789</ele>
        <time>2012-11-03T11:05:21Z</time>
      </trkpt>
      <trkpt lat="43.49891" lon="6.79914">
        <ele>338.5214844</ele>
        <time>2012-11-03T11:05:23Z</time>
      </trkpt>
      <trkpt lat="43.499" lon="6.79905">
        <ele>337.0794678</ele>
        <time>2012-11-03T11:05:25Z</time>
      </trkpt>
      <trkpt lat="43.4992" lon="6.79882">
        <ele>337.0794678</ele>
        <time>2012-11-03T11:05:31Z</time>
      </trkpt>
      <trkpt lat="43.49937" lon="6.79866">
        <ele>337.0794678</ele>
        <time>2012-11-03T11:05:36Z</time>
      </trkpt>
      <trkpt lat="43.49988" lon="6.7982">
        <ele>333.7147217</ele>
        <time>2012-11-03T11:05:50Z</time>
      </trkpt>
      <trkpt lat="43.50004" lon="6.79809">
        <ele>331.7921143</ele>
        <time>2012-11-03T11:05:54Z</time>
      </trkpt>
      <trkpt lat="43.5001" lon="6.79799">
        <ele>330.8309326</ele>
        <time>2012-11-03T11:05:56Z</time>
      </trkpt>
      <trkpt lat="43.50018" lon="6.79793">
        <ele>330.8309326</ele>
        <time>2012-11-03T11:05:58Z</time>
      </trkpt>
      <trkpt lat="43.50033" lon="6.79771">
        <ele>329.8695068</ele>
        <time>2012-11-03T11:06:04Z</time>
      </trkpt>
      <trkpt lat="43.50041" lon="6.79761">
        <ele>329.8695068</ele>
        <time>2012-11-03T11:06:08Z</time>
      </trkpt>
      <trkpt lat="43.5005" lon="6.79736">
        <ele>329.8695068</ele>
        <time>2012-11-03T11:06:13Z</time>
      </trkpt>
      <trkpt lat="43.50084" lon="6.79719">
        <ele>330.3502197</ele>
        <time>2012-11-03T11:06:24Z</time>
      </trkpt>
      <trkpt lat="43.50086" lon="6.79719">
        <ele>330.8309326</ele>
        <time>2012-11-03T11:06:26Z</time>
      </trkpt>
      <trkpt lat="43.50112" lon="6.79678">
        <ele>330.3502197</ele>
        <time>2012-11-03T11:06:36Z</time>
      </trkpt>
      <trkpt lat="43.50135" lon="6.79663">
        <ele>329.388916</ele>
        <time>2012-11-03T11:06:43Z</time>
      </trkpt>
      <trkpt lat="43.50143" lon="6.79658">
        <ele>328.9083252</ele>
        <time>2012-11-03T11:06:45Z</time>
      </trkpt>
      <trkpt lat="43.5015" lon="6.7963">
        <ele>326.5048828</ele>
        <time>2012-11-03T11:06:49Z</time>
      </trkpt>
      <trkpt lat="43.5015" lon="6.79612">
        <ele>325.5435791</ele>
        <time>2012-11-03T11:06:51Z</time>
      </trkpt>
      <trkpt lat="43.50141" lon="6.79584">
        <ele>323.1403809</ele>
        <time>2012-11-03T11:06:56Z</time>
      </trkpt>
      <trkpt lat="43.5014" lon="6.79577">
        <ele>321.6983643</ele>
        <time>2012-11-03T11:06:58Z</time>
      </trkpt>
      <trkpt lat="43.50137" lon="6.79571">
        <ele>319.7756348</ele>
        <time>2012-11-03T11:07:06Z</time>
      </trkpt>
      <trkpt lat="43.50131" lon="6.79564">
        <ele>318.8143311</ele>
        <time>2012-11-03T11:07:09Z</time>
      </trkpt>
      <trkpt lat="43.50138" lon="6.79536">
        <ele>316.4110107</ele>
        <time>2012-11-03T11:07:17Z</time>
      </trkpt>
      <trkpt lat="43.50148" lon="6.79516">
        <ele>313.5272217</ele>
        <time>2012-11-03T11:07:22Z</time>
      </trkpt>
      <trkpt lat="43.50147" lon="6.79496">
        <ele>312.5657959</ele>
        <time>2012-11-03T11:07:25Z</time>
      </trkpt>
      <trkpt lat="43.50145" lon="6.79474">
        <ele>310.1624756</ele>
        <time>2012-11-03T11:07:31Z</time>
      </trkpt>
      <trkpt lat="43.50142" lon="6.79467">
        <ele>309.6818848</ele>
        <time>2012-11-03T11:07:34Z</time>
      </trkpt>
      <trkpt lat="43.50129" lon="6.79473">
        <ele>309.6818848</ele>
        <time>2012-11-03T11:07:45Z</time>
      </trkpt>
      <trkpt lat="43.50129" lon="6.79473">
        <ele>310.6430664</ele>
        <time>2012-11-03T11:08:00Z</time>
      </trkpt>
    </trkseg>
  </trk>
</gpx>